| time (UTC) | temp C | wind direction | speed KPH | gust KPH | rain 1hr cm | rain 24hr cm | rain mn cm | humidity % | barometer mb |
| 20260505153306 | 10 | 280 | 8.0 | 19.3 | 0.00 | 0.00 | 0.00 | 44 | 1007.2 |
| 20260505153206 | 10 | 280 | 8.0 | 19.3 | 0.00 | 0.00 | 0.00 | 44 | 1007.2 |
| 20260505153127 | 10 | 284 | 8.0 | 19.3 | 0.00 | 0.00 | 0.00 | 44 | 1007.1 |
| 20260505153006 | 10 | 285 | 8.0 | 19.3 | 0.00 | 0.00 | 0.00 | 45 | 1007.1 |
| 20260505152906 | 10 | 285 | 8.0 | 19.3 | 0.00 | 0.00 | 0.00 | 45 | 1007.2 |
| 20260505152806 | 10 | 288 | 8.0 | 19.3 | 0.00 | 0.00 | 0.00 | 45 | 1007.2 |
| 20260505152706 | 10 | 291 | 6.4 | 19.3 | 0.00 | 0.00 | 0.00 | 44 | 1007.2 |
| 20260505152606 | 10 | 289 | 6.4 | 19.3 | 0.00 | 0.00 | 0.00 | 44 | 1007.2 |
| 20260505152506 | 10 | 289 | 6.4 | 19.3 | 0.00 | 0.00 | 0.00 | 44 | 1007.3 |
| 20260505152406 | 10 | 289 | 6.4 | 19.3 | 0.00 | 0.00 | 0.00 | 44 | 1007.3 |
| 20260505152306 | 10 | 290 | 6.4 | 17.7 | 0.00 | 0.00 | 0.00 | 44 | 1007.4 |
| 20260505152206 | 10 | 288 | 6.4 | 17.7 | 0.00 | 0.00 | 0.00 | 43 | 1007.4 |
| 20260505152127 | 10 | 284 | 6.4 | 17.7 | 0.00 | 0.00 | 0.00 | 44 | 1007.4 |
| 20260505152006 | 10 | 281 | 6.4 | 24.1 | 0.00 | 0.00 | 0.00 | 43 | 1007.5 |
| 20260505151906 | 10 | 283 | 6.4 | 24.1 | 0.00 | 0.00 | 0.00 | 44 | 1007.5 |
| 20260505151806 | 10 | 282 | 8.0 | 24.1 | 0.00 | 0.00 | 0.00 | 45 | 1007.5 |
| 20260505151706 | 10 | 282 | 6.4 | 24.1 | 0.00 | 0.00 | 0.00 | 45 | 1007.5 |
| 20260505151606 | 10 | 285 | 8.0 | 24.1 | 0.00 | 0.00 | 0.00 | 45 | 1007.4 |
| 20260505151506 | 10 | 289 | 6.4 | 24.1 | 0.00 | 0.00 | 0.00 | 46 | 1007.4 |
| 20260505151406 | 10 | 290 | 6.4 | 24.1 | 0.00 | 0.00 | 0.00 | 46 | 1007.4 |
| 20260505151327 | 10 | 290 | 6.4 | 24.1 | 0.00 | 0.00 | 0.00 | 46 | 1007.5 |
| 20260505151206 | 10 | 294 | 6.4 | 24.1 | 0.00 | 0.00 | 0.00 | 45 | 1007.5 |
| 20260505151106 | 10 | 298 | 6.4 | 24.1 | 0.00 | 0.00 | 0.00 | 45 | 1007.5 |
| 20260505151006 | 10 | 299 | 4.8 | 19.3 | 0.00 | 0.00 | 0.00 | 44 | 1007.5 |
| 20260505150906 | 10 | 303 | 4.8 | 17.7 | 0.00 | 0.00 | 0.00 | 46 | 1007.5 |
| 20260505150806 | 10 | 305 | 4.8 | 11.3 | 0.00 | 0.00 | 0.00 | 48 | 1007.4 |
| 20260505150706 | 10 | 304 | 4.8 | 12.9 | 0.00 | 0.00 | 0.00 | 47 | 1007.4 |
| 20260505150627 | 10 | 303 | 4.8 | 12.9 | 0.00 | 0.00 | 0.00 | 47 | 1007.4 |
| 20260505150527 | 10 | 300 | 4.8 | 16.1 | 0.00 | 0.00 | 0.00 | 46 | 1007.5 |
| 20260505150406 | 10 | 296 | 6.4 | 16.1 | 0.00 | 0.00 | 0.00 | 46 | 1007.5 |
| 20260505150306 | 10 | 291 | 6.4 | 19.3 | 0.00 | 0.00 | 0.00 | 46 | 1007.6 |
| 20260505150227 | 10 | 289 | 6.4 | 19.3 | 0.00 | 0.00 | 0.00 | 46 | 1007.6 |
| 20260505150105 | 10 | 283 | 6.4 | 19.3 | 0.00 | 0.00 | 0.00 | 46 | 1007.6 |
| 20260505140606 | 10 | 303 | 6.4 | 19.3 | 0.00 | 0.00 | 0.00 | 43 | 1007.1 |
| 20260505140506 | 10 | 304 | 6.4 | 19.3 | 0.00 | 0.00 | 0.00 | 43 | 1007.1 |
| 20260505140405 | 10 | 301 | 6.4 | 19.3 | 0.00 | 0.00 | 0.00 | 42 | 1007.1 |
| 20260505140327 | 10 | 299 | 6.4 | 19.3 | 0.00 | 0.00 | 0.00 | 42 | 1007.1 |
| 20260505140206 | 10 | 295 | 6.4 | 17.7 | 0.00 | 0.00 | 0.00 | 43 | 1007.2 |
| 20260505140106 | 10 | 291 | 6.4 | 20.9 | 0.00 | 0.00 | 0.00 | 43 | 1007.1 |
| 20260505130305 | 8 | 309 | 4.8 | 14.5 | 0.00 | 0.00 | 0.00 | 47 | 1006.6 |
| 20260505130206 | 8 | 311 | 4.8 | 14.5 | 0.00 | 0.00 | 0.00 | 46 | 1006.6 |
| 20260505130106 | 8 | 312 | 4.8 | 14.5 | 0.00 | 0.00 | 0.00 | 47 | 1006.5 |
| 20260505125005 | 9 | 321 | 3.2 | 9.7 | 0.00 | 0.00 | 0.00 | 49 | 1006.4 |
| 20260505124905 | 9 | 321 | 3.2 | 8.0 | 0.00 | 0.00 | 0.00 | 49 | 1006.6 |
| 20260505124806 | 9 | 321 | 3.2 | 9.7 | 0.00 | 0.00 | 0.00 | 50 | 1006.6 |
| 20260505124706 | 8 | 323 | 3.2 | 9.7 | 0.00 | 0.00 | 0.00 | 50 | 1006.6 |
| 20260505124606 | 8 | 326 | 3.2 | 9.7 | 0.00 | 0.00 | 0.00 | 50 | 1006.3 |
| 20260505124527 | 8 | 327 | 3.2 | 9.7 | 0.00 | 0.00 | 0.00 | 50 | 1006.3 |
| 20260505124405 | 8 | 328 | 4.8 | 9.7 | 0.00 | 0.00 | 0.00 | 50 | 1006.2 |
| 20260505124327 | 8 | 328 | 4.8 | 9.7 | 0.00 | 0.00 | 0.00 | 50 | 1006.2 |
| 20260505124206 | 8 | 324 | 3.2 | 11.3 | 0.00 | 0.00 | 0.00 | 50 | 1006.5 |
| 20260505124126 | 8 | 322 | 3.2 | 11.3 | 0.00 | 0.00 | 0.00 | 50 | 1006.6 |
| 20260505124005 | 8 | 315 | 3.2 | 11.3 | 0.00 | 0.00 | 0.00 | 52 | 1006.6 |
| 20260505123907 | 8 | 312 | 3.2 | 11.3 | 0.00 | 0.00 | 0.00 | 51 | 1006.6 |
| 20260505123805 | 8 | 309 | 3.2 | 11.3 | 0.00 | 0.00 | 0.00 | 52 | 1006.5 |
| 20260505123705 | 8 | 305 | 3.2 | 11.3 | 0.00 | 0.00 | 0.00 | 53 | 1006.5 |
| 20260505123605 | 8 | 299 | 3.2 | 11.3 | 0.00 | 0.00 | 0.00 | 53 | 1006.5 |
| 20260505123506 | 8 | 295 | 3.2 | 11.3 | 0.00 | 0.00 | 0.00 | 52 | 1006.5 |
| 20260505123406 | 8 | 290 | 3.2 | 14.5 | 0.00 | 0.00 | 0.00 | 54 | 1006.5 |
| 20260505123305 | 8 | 288 | 3.2 | 14.5 | 0.00 | 0.00 | 0.00 | 56 | 1006.4 |
| 20260505123205 | 8 | 288 | 3.2 | 14.5 | 0.00 | 0.00 | 0.00 | 56 | 1006.4 |
| 20260505123106 | 8 | 286 | 3.2 | 14.5 | 0.00 | 0.00 | 0.00 | 57 | 1006.3 |
| 20260505123005 | 8 | 288 | 3.2 | 14.5 | 0.00 | 0.00 | 0.00 | 58 | 1006.2 |
| 20260505122905 | 8 | 290 | 3.2 | 14.5 | 0.00 | 0.00 | 0.00 | 57 | 1006.2 |
| 20260505122805 | 8 | 294 | 3.2 | 14.5 | 0.00 | 0.00 | 0.00 | 58 | 1006.0 |
| 20260505122727 | 8 | 297 | 3.2 | 14.5 | 0.00 | 0.00 | 0.00 | 57 | 1006.0 |
| 20260505122605 | 8 | 300 | 3.2 | 14.5 | 0.00 | 0.00 | 0.00 | 57 | 1005.8 |
| 20260505122505 | 8 | 304 | 3.2 | 14.5 | 0.00 | 0.00 | 0.00 | 59 | 1005.8 |
| 20260505122426 | 8 | 307 | 3.2 | 12.9 | 0.00 | 0.00 | 0.00 | 59 | 1005.8 |
| 20260505122306 | 8 | 309 | 1.6 | 12.9 | 0.00 | 0.00 | 0.00 | 60 | 1005.6 |
| 20260505122206 | 8 | 311 | 1.6 | 12.9 | 0.00 | 0.00 | 0.00 | 61 | 1005.6 |
| 20260505122105 | 8 | 313 | 1.6 | 12.9 | 0.00 | 0.00 | 0.00 | 61 | 1005.6 |
| 20260505122005 | 8 | 316 | 1.6 | 12.9 | 0.00 | 0.00 | 0.00 | 61 | 1005.5 |
| 20260505121906 | 8 | 325 | 1.6 | 8.0 | 0.00 | 0.00 | 0.00 | 64 | 1005.5 |
| 20260505121826 | 8 | 324 | 1.6 | 4.8 | 0.00 | 0.00 | 0.00 | 64 | 1005.4 |
| 20260505121705 | 8 | 326 | 1.6 | 4.8 | 0.00 | 0.00 | 0.00 | 65 | 1005.3 |
| 20260505121605 | 8 | 327 | 1.6 | 8.0 | 0.00 | 0.00 | 0.00 | 66 | 1005.3 |
| 20260505121505 | 8 | 327 | 1.6 | 8.0 | 0.00 | 0.00 | 0.00 | 66 | 1005.3 |
| 20260505121405 | 7 | 320 | 3.2 | 9.7 | 0.00 | 0.00 | 0.00 | 66 | 1005.3 |
| 20260505121305 | 7 | 321 | 3.2 | 9.7 | 0.00 | 0.00 | 0.00 | 66 | 1005.2 |
| 20260505121205 | 7 | 321 | 3.2 | 9.7 | 0.00 | 0.00 | 0.00 | 66 | 1005.2 |
| 20260505121106 | 7 | 322 | 3.2 | 9.7 | 0.00 | 0.00 | 0.00 | 67 | 1005.2 |
| 20260505121005 | 7 | 321 | 3.2 | 9.7 | 0.00 | 0.00 | 0.00 | 68 | 1005.2 |
| 20260505120905 | 7 | 321 | 3.2 | 9.7 | 0.00 | 0.00 | 0.00 | 68 | 1005.2 |
| 20260505120806 | 7 | 320 | 3.2 | 9.7 | 0.00 | 0.00 | 0.00 | 68 | 1005.2 |
| 20260505120705 | 7 | 322 | 3.2 | 9.7 | 0.00 | 0.00 | 0.00 | 69 | 1005.2 |
| 20260505120606 | 7 | 319 | 3.2 | 9.7 | 0.00 | 0.00 | 0.00 | 69 | 1005.2 |
| 20260505120505 | 7 | 319 | 3.2 | 9.7 | 0.00 | 0.00 | 0.00 | 69 | 1005.1 |
| 20260505120406 | 7 | 323 | 3.2 | 9.7 | 0.00 | 0.00 | 0.00 | 69 | 1005.2 |
| 20260505120306 | 7 | 321 | 3.2 | 8.0 | 0.00 | 0.00 | 0.00 | 70 | 1005.2 |
| 20260505120205 | 7 | 321 | 3.2 | 6.4 | 0.00 | 0.00 | 0.00 | 71 | 1005.2 |
| 20260505120105 | 7 | 322 | 3.2 | 9.7 | 0.00 | 0.00 | 0.00 | 71 | 1005.2 |
| 20260505120007 | 7 | 321 | 3.2 | 9.7 | 0.00 | 0.00 | 0.00 | 71 | 1005.2 |
| 20260505115905 | 7 | 320 | 3.2 | 9.7 | 0.00 | 0.00 | 0.00 | 71 | 1005.2 |
| 20260505115806 | 7 | 323 | 3.2 | 9.7 | 0.00 | 0.00 | 0.00 | 72 | 1005.2 |
| 20260505115706 | 7 | 319 | 3.2 | 11.3 | 0.00 | 0.00 | 0.00 | 72 | 1005.2 |
| 20260505115605 | 7 | 325 | 3.2 | 11.3 | 0.00 | 0.00 | 0.00 | 73 | 1005.2 |
| 20260505115505 | 7 | 325 | 3.2 | 11.3 | 0.00 | 0.00 | 0.00 | 74 | 1005.4 |
| 20260505115405 | 7 | 325 | 3.2 | 11.3 | 0.00 | 0.00 | 0.00 | 74 | 1005.4 |
| 20260505115327 | 7 | 326 | 3.2 | 11.3 | 0.00 | 0.00 | 0.00 | 74 | 1005.4 |
| 20260505115205 | 7 | 327 | 3.2 | 11.3 | 0.00 | 0.00 | 0.00 | 74 | 1005.2 |
| 20260505115105 | 7 | 327 | 3.2 | 11.3 | 0.00 | 0.00 | 0.00 | 75 | 1005.2 |
| 20260505115006 | 7 | 327 | 3.2 | 11.3 | 0.00 | 0.00 | 0.00 | 74 | 1005.2 |
| 20260505114906 | 7 | 326 | 3.2 | 11.3 | 0.00 | 0.00 | 0.00 | 74 | 1005.2 |
| 20260505114805 | 7 | 325 | 3.2 | 11.3 | 0.00 | 0.00 | 0.00 | 74 | 1005.2 |
| 20260505114726 | 7 | 325 | 3.2 | 9.7 | 0.00 | 0.00 | 0.00 | 74 | 1005.1 |
| 20260505114605 | 7 | 319 | 3.2 | 8.0 | 0.00 | 0.00 | 0.00 | 74 | 1005.0 |
| 20260505114505 | 8 | 313 | 3.2 | 8.0 | 0.00 | 0.00 | 0.00 | 74 | 1005.0 |
| 20260505114406 | 8 | 314 | 1.6 | 8.0 | 0.00 | 0.00 | 0.00 | 75 | 1005.0 |
| 20260505114305 | 8 | 310 | 1.6 | 8.0 | 0.00 | 0.00 | 0.00 | 75 | 1005.0 |
| 20260505114206 | 8 | 297 | 1.6 | 8.0 | 0.00 | 0.00 | 0.00 | 75 | 1005.2 |
| 20260505114105 | 8 | 290 | 1.6 | 8.0 | 0.00 | 0.00 | 0.00 | 75 | 1005.2 |
| 20260505114005 | 8 | 282 | 1.6 | 8.0 | 0.00 | 0.00 | 0.00 | 75 | 1005.2 |
| 20260505113905 | 8 | 279 | 1.6 | 8.0 | 0.00 | 0.00 | 0.00 | 75 | 1005.0 |
| 20260505113805 | 8 | 276 | 3.2 | 8.0 | 0.00 | 0.00 | 0.00 | 75 | 1005.0 |
| 20260505113705 | 8 | 275 | 1.6 | 6.4 | 0.00 | 0.00 | 0.00 | 75 | 1005.1 |
| 20260505113605 | 8 | 275 | 3.2 | 6.4 | 0.00 | 0.00 | 0.00 | 76 | 1005.0 |
| 20260505113506 | 8 | 281 | 1.6 | 11.3 | 0.00 | 0.00 | 0.00 | 75 | 1005.0 |
| 20260505113405 | 8 | 271 | 1.6 | 11.3 | 0.00 | 0.00 | 0.00 | 76 | 1005.0 |
| 20260505113305 | 8 | 273 | 1.6 | 11.3 | 0.00 | 0.00 | 0.00 | 76 | 1005.0 |
| 20260505113206 | 8 | 279 | 1.6 | 11.3 | 0.00 | 0.00 | 0.00 | 75 | 1005.0 |
| 20260505113127 | 8 | 281 | 1.6 | 11.3 | 0.00 | 0.00 | 0.00 | 75 | 1005.0 |
| 20260505113005 | 8 | 286 | 1.6 | 11.3 | 0.00 | 0.00 | 0.00 | 75 | 1005.0 |
| 20260505112926 | 8 | 286 | 1.6 | 11.3 | 0.00 | 0.00 | 0.00 | 75 | 1005.1 |
| 20260505112806 | 8 | 288 | 1.6 | 11.3 | 0.00 | 0.00 | 0.00 | 75 | 1005.1 |
| 20260505112706 | 8 | 287 | 1.6 | 11.3 | 0.00 | 0.00 | 0.00 | 74 | 1005.1 |
| 20260505112626 | 8 | 289 | 1.6 | 11.3 | 0.00 | 0.00 | 0.00 | 75 | 1005.1 |
| 20260505112505 | 7 | 0 | 0.0 | 4.8 | 0.00 | 0.00 | 0.00 | 75 | 1005.1 |
| 20260505112405 | 7 | 0 | 0.0 | 4.8 | 0.00 | 0.00 | 0.00 | 75 | 1005.0 |
| 20260505112305 | 7 | 283 | 1.6 | 6.4 | 0.00 | 0.00 | 0.00 | 75 | 1005.0 |
| 20260505112206 | 7 | 286 | 1.6 | 9.7 | 0.00 | 0.00 | 0.00 | 75 | 1005.0 |
| 20260505112105 | 7 | 283 | 1.6 | 9.7 | 0.00 | 0.00 | 0.00 | 76 | 1005.0 |
| 20260505112005 | 7 | 282 | 1.6 | 9.7 | 0.00 | 0.00 | 0.00 | 76 | 1005.0 |
| 20260505111906 | 7 | 279 | 1.6 | 9.7 | 0.00 | 0.00 | 0.00 | 76 | 1004.9 |
| 20260505111805 | 7 | 282 | 1.6 | 9.7 | 0.00 | 0.00 | 0.00 | 76 | 1004.9 |
| 20260505111705 | 7 | 279 | 1.6 | 9.7 | 0.00 | 0.00 | 0.00 | 76 | 1004.9 |
| 20260505111605 | 7 | 283 | 1.6 | 19.3 | 0.00 | 0.00 | 0.00 | 76 | 1004.8 |
| 20260505111506 | 7 | 285 | 3.2 | 19.3 | 0.00 | 0.00 | 0.00 | 76 | 1004.8 |
| 20260505111405 | 7 | 285 | 3.2 | 19.3 | 0.00 | 0.00 | 0.00 | 77 | 1004.8 |
| 20260505111305 | 7 | 285 | 3.2 | 19.3 | 0.00 | 0.00 | 0.00 | 77 | 1004.8 |
| 20260505111226 | 7 | 284 | 3.2 | 19.3 | 0.00 | 0.00 | 0.00 | 78 | 1004.8 |
| 20260505111105 | 7 | 283 | 3.2 | 19.3 | 0.00 | 0.00 | 0.00 | 78 | 1004.8 |
| 20260505111005 | 7 | 285 | 3.2 | 19.3 | 0.00 | 0.00 | 0.00 | 78 | 1004.7 |
| 20260505110905 | 7 | 288 | 3.2 | 19.3 | 0.00 | 0.00 | 0.00 | 78 | 1004.7 |
| 20260505110806 | 7 | 288 | 3.2 | 19.3 | 0.00 | 0.00 | 0.00 | 78 | 1004.6 |
| 20260505110705 | 7 | 287 | 3.2 | 19.3 | 0.00 | 0.00 | 0.00 | 78 | 1004.6 |
| 20260505110605 | 7 | 285 | 1.6 | 17.7 | 0.00 | 0.00 | 0.00 | 78 | 1004.5 |
| 20260505110505 | 7 | 283 | 1.6 | 8.0 | 0.00 | 0.00 | 0.00 | 79 | 1004.5 |
| 20260505110426 | 7 | 282 | 1.6 | 8.0 | 0.00 | 0.00 | 0.00 | 80 | 1004.5 |
| 20260505110305 | 7 | 280 | 1.6 | 8.0 | 0.00 | 0.00 | 0.00 | 80 | 1004.5 |
| 20260505110205 | 7 | 276 | 1.6 | 8.0 | 0.00 | 0.00 | 0.00 | 80 | 1004.5 |
| 20260505110105 | 7 | 276 | 1.6 | 8.0 | 0.00 | 0.00 | 0.00 | 81 | 1004.4 |
| 20260505102205 | 7 | 260 | 1.6 | 9.7 | 0.00 | 0.00 | 0.00 | 80 | 1003.6 |
| 20260505102105 | 7 | 263 | 1.6 | 9.7 | 0.00 | 0.00 | 0.00 | 79 | 1003.7 |
| 20260505102026 | 7 | 264 | 1.6 | 4.8 | 0.00 | 0.00 | 0.00 | 79 | 1003.7 |
| 20260505101905 | 7 | 0 | 0.0 | 3.2 | 0.00 | 0.00 | 0.00 | 78 | 1003.8 |
| 20260505101805 | 7 | 0 | 0.0 | 3.2 | 0.00 | 0.00 | 0.00 | 77 | 1003.8 |
| 20260505101705 | 7 | 0 | 0.0 | 3.2 | 0.00 | 0.00 | 0.00 | 77 | 1003.7 |
| 20260505101605 | 7 | 0 | 0.0 | 3.2 | 0.00 | 0.00 | 0.00 | 78 | 1003.7 |
| 20260505101505 | 7 | 0 | 0.0 | 3.2 | 0.00 | 0.00 | 0.00 | 78 | 1003.7 |
| 20260505101405 | 7 | 0 | 0.0 | 3.2 | 0.00 | 0.00 | 0.00 | 78 | 1003.7 |
| 20260505101305 | 7 | 0 | 0.0 | 3.2 | 0.00 | 0.00 | 0.00 | 78 | 1003.7 |
| 20260505101226 | 7 | 0 | 0.0 | 3.2 | 0.00 | 0.00 | 0.00 | 78 | 1003.6 |
| 20260505101105 | 7 | 0 | 0.0 | 1.6 | 0.00 | 0.00 | 0.00 | 78 | 1003.5 |
| 20260505101005 | 7 | 0 | 0.0 | 1.6 | 0.00 | 0.00 | 0.00 | 78 | 1003.5 |
| 20260505100905 | 7 | 0 | 0.0 | 1.6 | 0.00 | 0.00 | 0.00 | 79 | 1003.5 |
| 20260505100805 | 7 | 0 | 0.0 | 1.6 | 0.00 | 0.00 | 0.00 | 79 | 1003.5 |
| 20260505100705 | 7 | 0 | 0.0 | 1.6 | 0.00 | 0.00 | 0.00 | 79 | 1003.5 |
| 20260505100605 | 7 | 0 | 0.0 | 1.6 | 0.00 | 0.00 | 0.00 | 79 | 1003.4 |
| 20260505100505 | 7 | 0 | 0.0 | 0.0 | 0.00 | 0.00 | 0.00 | 79 | 1003.4 |
| 20260505100405 | 7 | 0 | 0.0 | 1.6 | 0.00 | 0.00 | 0.00 | 79 | 1003.2 |
| 20260505100305 | 7 | 0 | 0.0 | 1.6 | 0.00 | 0.00 | 0.00 | 79 | 1003.2 |
| 20260505100205 | 7 | 0 | 0.0 | 1.6 | 0.00 | 0.00 | 0.00 | 79 | 1003.2 |
| 20260505100105 | 7 | 0 | 0.0 | 1.6 | 0.00 | 0.00 | 0.00 | 79 | 1003.4 |
| 20260505100005 | 7 | 0 | 0.0 | 1.6 | 0.00 | 0.00 | 0.00 | 79 | 1003.4 |
| 20260505095905 | 7 | 0 | 0.0 | 1.6 | 0.00 | 0.00 | 0.00 | 79 | 1003.4 |
| 20260505095805 | 7 | 0 | 0.0 | 1.6 | 0.00 | 0.00 | 0.00 | 79 | 1003.4 |
| 20260505095726 | 7 | 0 | 0.0 | 1.6 | 0.00 | 0.00 | 0.00 | 79 | 1003.4 |
| 20260505095605 | 7 | 0 | 0.0 | 1.6 | 0.00 | 0.00 | 0.00 | 79 | 1003.4 |
| 20260505095505 | 7 | 0 | 0.0 | 1.6 | 0.00 | 0.00 | 0.00 | 79 | 1003.4 |
| 20260505095405 | 7 | 0 | 0.0 | 0.0 | 0.00 | 0.00 | 0.00 | 79 | 1003.4 |
| 20260505095306 | 7 | 0 | 0.0 | 0.0 | 0.00 | 0.00 | 0.00 | 79 | 1003.3 |
| 20260505095205 | 7 | 0 | 0.0 | 0.0 | 0.00 | 0.00 | 0.00 | 79 | 1003.3 |
| 20260505095126 | 7 | 0 | 0.0 | 0.0 | 0.00 | 0.00 | 0.00 | 79 | 1003.3 |
| 20260505095005 | 7 | 0 | 0.0 | 0.0 | 0.00 | 0.00 | 0.00 | 79 | 1003.3 |
| 20260505094905 | 7 | 0 | 0.0 | 0.0 | 0.00 | 0.00 | 0.00 | 79 | 1003.3 |
| 20260505094826 | 7 | 0 | 0.0 | 0.0 | 0.00 | 0.00 | 0.00 | 79 | 1003.3 |
| 20260505094705 | 7 | 0 | 0.0 | 0.0 | 0.00 | 0.00 | 0.00 | 79 | 1003.3 |
| 20260505094605 | 7 | 0 | 0.0 | 0.0 | 0.00 | 0.00 | 0.00 | 79 | 1003.2 |
| 20260505094505 | 7 | 0 | 0.0 | 0.0 | 0.00 | 0.00 | 0.00 | 79 | 1003.2 |
| 20260505094405 | 7 | 0 | 0.0 | 0.0 | 0.00 | 0.00 | 0.00 | 79 | 1003.2 |
| 20260505094305 | 7 | 0 | 0.0 | 0.0 | 0.00 | 0.00 | 0.00 | 79 | 1003.0 |
| 20260505094226 | 7 | 0 | 0.0 | 0.0 | 0.00 | 0.00 | 0.00 | 79 | 1003.0 |
| 20260505094126 | 7 | 0 | 0.0 | 0.0 | 0.00 | 0.00 | 0.00 | 79 | 1003.1 |
| 20260505094026 | 7 | 0 | 0.0 | 0.0 | 0.00 | 0.00 | 0.00 | 79 | 1003.1 |
| 20260505093905 | 7 | 0 | 0.0 | 0.0 | 0.00 | 0.00 | 0.00 | 79 | 1003.1 |
| 20260505093805 | 7 | 0 | 0.0 | 0.0 | 0.00 | 0.00 | 0.00 | 79 | 1002.9 |
| 20260505093705 | 7 | 0 | 0.0 | 0.0 | 0.00 | 0.00 | 0.00 | 79 | 1002.9 |
| 20260505093626 | 7 | 0 | 0.0 | 0.0 | 0.00 | 0.00 | 0.00 | 79 | 1002.8 |
| 20260505093505 | 7 | 0 | 0.0 | 0.0 | 0.00 | 0.00 | 0.00 | 79 | 1002.7 |
| 20260505093405 | 7 | 0 | 0.0 | 0.0 | 0.00 | 0.00 | 0.00 | 79 | 1002.7 |
| 20260505093305 | 7 | 0 | 0.0 | 0.0 | 0.00 | 0.00 | 0.00 | 79 | 1002.7 |
| 20260505093205 | 7 | 0 | 0.0 | 0.0 | 0.00 | 0.00 | 0.00 | 79 | 1002.7 |
| 20260505093126 | 7 | 0 | 0.0 | 0.0 | 0.00 | 0.00 | 0.00 | 79 | 1002.7 |
| 20260505093005 | 7 | 0 | 0.0 | 0.0 | 0.00 | 0.00 | 0.00 | 79 | 1002.6 |
| 20260505092905 | 7 | 0 | 0.0 | 1.6 | 0.00 | 0.00 | 0.00 | 78 | 1002.6 |
| 20260505092805 | 7 | 0 | 0.0 | 1.6 | 0.00 | 0.00 | 0.00 | 78 | 1002.5 |
| 20260505092705 | 7 | 0 | 0.0 | 1.6 | 0.00 | 0.00 | 0.00 | 78 | 1002.4 |
| 20260505092605 | 7 | 0 | 0.0 | 1.6 | 0.00 | 0.00 | 0.00 | 78 | 1002.4 |
| 20260505092527 | 7 | 0 | 0.0 | 1.6 | 0.00 | 0.00 | 0.00 | 78 | 1002.3 |
| 20260505092405 | 7 | 0 | 0.0 | 1.6 | 0.00 | 0.00 | 0.00 | 78 | 1002.3 |
| 20260505092305 | 7 | 0 | 0.0 | 1.6 | 0.00 | 0.00 | 0.00 | 78 | 1002.4 |
| 20260505092226 | 7 | 0 | 0.0 | 1.6 | 0.00 | 0.00 | 0.00 | 78 | 1002.4 |
| 20260505092105 | 7 | 0 | 0.0 | 1.6 | 0.00 | 0.00 | 0.00 | 78 | 1002.4 |
| 20260505092005 | 7 | 0 | 0.0 | 1.6 | 0.00 | 0.00 | 0.00 | 78 | 1002.5 |
| 20260505091926 | 7 | 0 | 0.0 | 1.6 | 0.00 | 0.00 | 0.00 | 78 | 1002.5 |
| 20260505091805 | 7 | 0 | 0.0 | 1.6 | 0.00 | 0.00 | 0.00 | 78 | 1002.5 |
| 20260505091705 | 7 | 0 | 0.0 | 1.6 | 0.00 | 0.00 | 0.00 | 78 | 1002.5 |
| 20260505091605 | 8 | 0 | 0.0 | 1.6 | 0.00 | 0.00 | 0.00 | 78 | 1002.5 |
| 20260505091526 | 8 | 0 | 0.0 | 1.6 | 0.00 | 0.00 | 0.00 | 78 | 1002.5 |
| 20260505091405 | 8 | 0 | 0.0 | 1.6 | 0.00 | 0.00 | 0.00 | 78 | 1002.4 |
| 20260505091305 | 8 | 0 | 0.0 | 3.2 | 0.00 | 0.00 | 0.00 | 78 | 1002.4 |
| 20260505091226 | 8 | 0 | 0.0 | 3.2 | 0.00 | 0.00 | 0.00 | 78 | 1002.4 |
| 20260505091105 | 8 | 0 | 0.0 | 3.2 | 0.00 | 0.00 | 0.00 | 78 | 1002.4 |
| 20260505091005 | 8 | 0 | 0.0 | 3.2 | 0.00 | 0.00 | 0.00 | 78 | 1002.4 |
| 20260505090905 | 8 | 0 | 0.0 | 3.2 | 0.00 | 0.00 | 0.00 | 78 | 1002.4 |
| 20260505090805 | 8 | 0 | 0.0 | 3.2 | 0.00 | 0.00 | 0.00 | 78 | 1002.4 |
| 20260505090705 | 8 | 0 | 0.0 | 3.2 | 0.00 | 0.00 | 0.00 | 78 | 1002.2 |
| 20260505090605 | 8 | 0 | 0.0 | 3.2 | 0.00 | 0.00 | 0.00 | 78 | 1002.2 |
| 20260505090526 | 8 | 0 | 0.0 | 3.2 | 0.00 | 0.00 | 0.00 | 78 | 1002.1 |
| 20260505090426 | 8 | 0 | 0.0 | 3.2 | 0.00 | 0.00 | 0.00 | 78 | 1002.1 |
| 20260505090305 | 7 | 0 | 0.0 | 3.2 | 0.00 | 0.00 | 0.00 | 79 | 1002.1 |
| 20260505090205 | 7 | 0 | 0.0 | 3.2 | 0.00 | 0.00 | 0.00 | 79 | 1002.1 |
| 20260505090126 | 7 | 0 | 0.0 | 3.2 | 0.00 | 0.00 | 0.00 | 79 | 1002.1 |
| 20260505090005 | 7 | 0 | 0.0 | 3.2 | 0.00 | 0.00 | 0.00 | 79 | 1002.1 |
| 20260505085905 | 7 | 0 | 0.0 | 3.2 | 0.00 | 0.00 | 0.00 | 79 | 1001.9 |
| 20260505085805 | 7 | 0 | 0.0 | 3.2 | 0.00 | 0.00 | 0.00 | 79 | 1001.9 |
| 20260505085705 | 7 | 0 | 0.0 | 3.2 | 0.00 | 0.00 | 0.00 | 79 | 1001.9 |
| 20260505085605 | 7 | 0 | 0.0 | 3.2 | 0.00 | 0.00 | 0.00 | 80 | 1001.9 |
| 20260505085505 | 7 | 0 | 0.0 | 3.2 | 0.00 | 0.00 | 0.00 | 80 | 1001.9 |
| 20260505085405 | 7 | 0 | 0.0 | 3.2 | 0.00 | 0.00 | 0.00 | 80 | 1001.8 |
| 20260505085305 | 7 | 0 | 0.0 | 3.2 | 0.00 | 0.00 | 0.00 | 80 | 1001.8 |
| 20260505085205 | 7 | 0 | 0.0 | 3.2 | 0.00 | 0.00 | 0.00 | 80 | 1001.8 |
| 20260505085105 | 7 | 0 | 0.0 | 3.2 | 0.00 | 0.00 | 0.00 | 80 | 1001.7 |
| 20260505085005 | 7 | 0 | 0.0 | 3.2 | 0.00 | 0.00 | 0.00 | 81 | 1001.7 |
| 20260505084905 | 7 | 0 | 0.0 | 3.2 | 0.00 | 0.00 | 0.00 | 81 | 1001.6 |
| 20260505084805 | 7 | 0 | 0.0 | 3.2 | 0.00 | 0.00 | 0.00 | 81 | 1001.6 |
| 20260505084705 | 7 | 0 | 0.0 | 3.2 | 0.00 | 0.00 | 0.00 | 82 | 1001.5 |
| 20260505084605 | 7 | 0 | 0.0 | 3.2 | 0.00 | 0.00 | 0.00 | 82 | 1001.5 |
| 20260505084505 | 7 | 0 | 0.0 | 3.2 | 0.00 | 0.00 | 0.00 | 83 | 1001.5 |
| 20260505084405 | 7 | 0 | 0.0 | 3.2 | 0.00 | 0.00 | 0.00 | 83 | 1001.5 |
| 20260505084305 | 7 | 0 | 0.0 | 3.2 | 0.00 | 0.00 | 0.00 | 83 | 1001.5 |
| 20260505084205 | 7 | 0 | 0.0 | 3.2 | 0.00 | 0.00 | 0.00 | 83 | 1001.6 |
| 20260505084105 | 7 | 0 | 0.0 | 3.2 | 0.00 | 0.00 | 0.00 | 83 | 1001.6 |
| 20260505084005 | 7 | 0 | 0.0 | 3.2 | 0.00 | 0.00 | 0.00 | 83 | 1001.6 |
| 20260505083926 | 7 | 0 | 0.0 | 3.2 | 0.00 | 0.00 | 0.00 | 83 | 1001.5 |
| 20260505083805 | 7 | 0 | 0.0 | 3.2 | 0.00 | 0.00 | 0.00 | 83 | 1001.5 |
| 20260505083705 | 7 | 0 | 0.0 | 3.2 | 0.00 | 0.00 | 0.00 | 83 | 1001.5 |
| 20260505083605 | 7 | 0 | 0.0 | 3.2 | 0.00 | 0.00 | 0.00 | 83 | 1001.6 |
| 20260505083526 | 7 | 0 | 0.0 | 1.6 | 0.00 | 0.00 | 0.00 | 83 | 1001.6 |
| 20260505083426 | 7 | 0 | 0.0 | 1.6 | 0.00 | 0.00 | 0.00 | 83 | 1001.5 |
| 20260505083305 | 7 | 287 | 1.6 | 11.3 | 0.00 | 0.00 | 0.00 | 83 | 1001.4 |
| 20260505083205 | 7 | 277 | 1.6 | 11.3 | 0.00 | 0.00 | 0.00 | 83 | 1001.4 |
| 20260505083105 | 7 | 283 | 1.6 | 11.3 | 0.00 | 0.00 | 0.00 | 82 | 1001.4 |
| 20260505083005 | 7 | 281 | 1.6 | 11.3 | 0.00 | 0.00 | 0.00 | 82 | 1001.4 |
| 20260505082926 | 7 | 280 | 1.6 | 11.3 | 0.00 | 0.00 | 0.00 | 82 | 1001.3 |
| 20260505082805 | 7 | 279 | 3.2 | 16.1 | 0.00 | 0.00 | 0.00 | 82 | 1001.3 |
| 20260505082705 | 7 | 285 | 3.2 | 16.1 | 0.00 | 0.00 | 0.00 | 82 | 1001.3 |
| 20260505082605 | 7 | 286 | 3.2 | 16.1 | 0.00 | 0.00 | 0.00 | 82 | 1001.2 |
| 20260505082505 | 7 | 283 | 4.8 | 16.1 | 0.00 | 0.00 | 0.00 | 81 | 1001.2 |
| 20260505082405 | 7 | 278 | 4.8 | 16.1 | 0.00 | 0.00 | 0.00 | 81 | 1001.2 |
| 20260505082326 | 8 | 279 | 4.8 | 16.1 | 0.00 | 0.00 | 0.00 | 81 | 1001.2 |
| 20260505082205 | 8 | 280 | 4.8 | 16.1 | 0.00 | 0.00 | 0.00 | 80 | 1001.2 |
| 20260505082105 | 8 | 279 | 4.8 | 16.1 | 0.00 | 0.00 | 0.00 | 80 | 1001.2 |
| 20260505082005 | 8 | 280 | 4.8 | 16.1 | 0.00 | 0.00 | 0.00 | 79 | 1001.2 |
| 20260505081926 | 8 | 281 | 4.8 | 16.1 | 0.00 | 0.00 | 0.00 | 79 | 1001.2 |
| 20260505081805 | 8 | 279 | 4.8 | 14.5 | 0.00 | 0.00 | 0.00 | 79 | 1001.1 |
| 20260505081704 | 8 | 278 | 4.8 | 14.5 | 0.00 | 0.00 | 0.00 | 78 | 1001.1 |
| 20260505081605 | 8 | 278 | 4.8 | 14.5 | 0.00 | 0.00 | 0.00 | 78 | 1001.0 |
| 20260505081505 | 8 | 278 | 4.8 | 14.5 | 0.00 | 0.00 | 0.00 | 78 | 1000.9 |
| 20260505081405 | 8 | 283 | 4.8 | 14.5 | 0.00 | 0.00 | 0.00 | 77 | 1000.9 |
| 20260505081305 | 8 | 282 | 4.8 | 14.5 | 0.00 | 0.00 | 0.00 | 77 | 1000.8 |
| 20260505081205 | 8 | 282 | 4.8 | 14.5 | 0.00 | 0.00 | 0.00 | 77 | 1000.8 |
| 20260505081105 | 8 | 280 | 3.2 | 14.5 | 0.00 | 0.00 | 0.00 | 77 | 1000.8 |
| 20260505081005 | 8 | 280 | 3.2 | 14.5 | 0.00 | 0.00 | 0.00 | 76 | 1000.8 |
| 20260505080905 | 8 | 286 | 3.2 | 14.5 | 0.00 | 0.00 | 0.00 | 76 | 1000.8 |
| 20260505080805 | 8 | 288 | 3.2 | 14.5 | 0.00 | 0.00 | 0.00 | 76 | 1000.8 |
| 20260505080705 | 8 | 285 | 3.2 | 8.0 | 0.00 | 0.00 | 0.00 | 76 | 1000.7 |
| 20260505080605 | 8 | 285 | 3.2 | 9.7 | 0.00 | 0.00 | 0.00 | 75 | 1000.7 |
| 20260505080505 | 8 | 284 | 3.2 | 9.7 | 0.00 | 0.00 | 0.00 | 75 | 1000.6 |
| 20260505080426 | 8 | 283 | 3.2 | 9.7 | 0.00 | 0.00 | 0.00 | 75 | 1000.6 |
| 20260505080305 | 9 | 278 | 3.2 | 9.7 | 0.00 | 0.00 | 0.00 | 75 | 1000.5 |
| 20260505080205 | 9 | 276 | 3.2 | 9.7 | 0.00 | 0.00 | 0.00 | 75 | 1000.5 |
| 20260505080105 | 9 | 275 | 3.2 | 9.7 | 0.00 | 0.00 | 0.00 | 74 | 1000.5 |
| 20260505080005 | 9 | 276 | 3.2 | 9.7 | 0.00 | 0.00 | 0.00 | 74 | 1000.5 |
| 20260505075926 | 9 | 272 | 3.2 | 9.7 | 0.00 | 0.00 | 0.00 | 74 | 1000.5 |
| 20260505075805 | 9 | 268 | 3.2 | 9.7 | 0.00 | 0.00 | 0.00 | 74 | 1000.5 |
| 20260505075705 | 9 | 264 | 3.2 | 9.7 | 0.00 | 0.00 | 0.00 | 74 | 1000.6 |
| 20260505075605 | 9 | 260 | 3.2 | 9.7 | 0.00 | 0.00 | 0.00 | 73 | 1000.6 |
| 20260505075505 | 9 | 262 | 1.6 | 9.7 | 0.00 | 0.00 | 0.00 | 73 | 1000.5 |
| 20260505075405 | 10 | 262 | 1.6 | 8.0 | 0.00 | 0.00 | 0.00 | 72 | 1000.5 |
| 20260505075305 | 10 | 262 | 1.6 | 8.0 | 0.00 | 0.00 | 0.00 | 72 | 1000.5 |
| 20260505075205 | 10 | 262 | 1.6 | 8.0 | 0.00 | 0.00 | 0.00 | 72 | 1000.5 |
| 20260505075105 | 10 | 260 | 1.6 | 8.0 | 0.00 | 0.00 | 0.00 | 72 | 1000.5 |
| 20260505075004 | 10 | 0 | 0.0 | 8.0 | 0.00 | 0.00 | 0.00 | 71 | 1000.4 |
| 20260505074905 | 10 | 0 | 0.0 | 3.2 | 0.00 | 0.00 | 0.00 | 71 | 1000.4 |
| 20260505074806 | 10 | 0 | 0.0 | 3.2 | 0.00 | 0.00 | 0.00 | 70 | 1000.4 |
| 20260505074705 | 10 | 0 | 0.0 | 3.2 | 0.00 | 0.00 | 0.00 | 70 | 1000.3 |
| 20260505074605 | 10 | 0 | 0.0 | 3.2 | 0.00 | 0.00 | 0.00 | 70 | 1000.3 |
| 20260505074505 | 10 | 0 | 0.0 | 3.2 | 0.00 | 0.00 | 0.00 | 70 | 1000.3 |
| 20260505074405 | 10 | 0 | 0.0 | 3.2 | 0.00 | 0.00 | 0.00 | 69 | 1000.3 |
| 20260505074305 | 10 | 0 | 0.0 | 3.2 | 0.00 | 0.00 | 0.00 | 68 | 1000.3 |
| 20260505074226 | 10 | 0 | 0.0 | 3.2 | 0.00 | 0.00 | 0.00 | 68 | 1000.3 |
| 20260505074105 | 10 | 0 | 0.0 | 3.2 | 0.00 | 0.00 | 0.00 | 68 | 1000.3 |
| 20260505074005 | 10 | 0 | 0.0 | 3.2 | 0.00 | 0.00 | 0.00 | 67 | 1000.3 |
| 20260505073926 | 10 | 0 | 0.0 | 3.2 | 0.00 | 0.00 | 0.00 | 67 | 1000.3 |
| 20260505073805 | 10 | 278 | 1.6 | 3.2 | 0.00 | 0.00 | 0.00 | 67 | 1000.3 |
| 20260505073705 | 10 | 277 | 1.6 | 3.2 | 0.00 | 0.00 | 0.00 | 67 | 1000.2 |
| 20260505073605 | 10 | 272 | 1.6 | 4.8 | 0.00 | 0.00 | 0.00 | 67 | 1000.2 |
| 20260505073505 | 10 | 271 | 1.6 | 4.8 | 0.00 | 0.00 | 0.00 | 66 | 1000.2 |
| 20260505073405 | 10 | 275 | 1.6 | 4.8 | 0.00 | 0.00 | 0.00 | 66 | 1000.1 |
| 20260505073305 | 10 | 276 | 1.6 | 4.8 | 0.00 | 0.00 | 0.00 | 66 | 1000.1 |
| 20260505073226 | 10 | 274 | 1.6 | 4.8 | 0.00 | 0.00 | 0.00 | 66 | 1000.2 |
| 20260505073105 | 10 | 274 | 1.6 | 4.8 | 0.00 | 0.00 | 0.00 | 66 | 1000.2 |
| 20260505073005 | 11 | 268 | 1.6 | 6.4 | 0.00 | 0.00 | 0.00 | 65 | 1000.2 |
| 20260505072905 | 11 | 269 | 1.6 | 6.4 | 0.00 | 0.00 | 0.00 | 65 | 1000.2 |
| 20260505072826 | 11 | 272 | 1.6 | 6.4 | 0.00 | 0.00 | 0.00 | 65 | 1000.2 |
| 20260505072705 | 11 | 278 | 1.6 | 14.5 | 0.00 | 0.00 | 0.00 | 65 | 1000.2 |
| 20260505072606 | 11 | 280 | 3.2 | 14.5 | 0.00 | 0.00 | 0.00 | 64 | 1000.2 |
| 20260505072526 | 11 | 282 | 3.2 | 14.5 | 0.00 | 0.00 | 0.00 | 64 | 1000.2 |
| 20260505072404 | 11 | 281 | 3.2 | 14.5 | 0.00 | 0.00 | 0.00 | 64 | 1000.2 |
| 20260505072305 | 11 | 280 | 3.2 | 14.5 | 0.00 | 0.00 | 0.00 | 64 | 1000.2 |
| 20260505072226 | 11 | 281 | 3.2 | 14.5 | 0.00 | 0.00 | 0.00 | 63 | 1000.2 |
| 20260505072105 | 11 | 281 | 3.2 | 14.5 | 0.00 | 0.00 | 0.00 | 63 | 1000.2 |
| 20260505072005 | 11 | 284 | 3.2 | 14.5 | 0.00 | 0.00 | 0.00 | 62 | 1000.2 |
| 20260505071905 | 11 | 286 | 3.2 | 14.5 | 0.00 | 0.00 | 0.00 | 62 | 1000.2 |
| 20260505071805 | 11 | 287 | 3.2 | 14.5 | 0.00 | 0.00 | 0.00 | 62 | 1000.1 |
| 20260505071705 | 11 | 285 | 3.2 | 12.9 | 0.00 | 0.00 | 0.00 | 62 | 1000.1 |
| 20260505071605 | 11 | 285 | 3.2 | 12.9 | 0.00 | 0.00 | 0.00 | 62 | 1000.2 |
| 20260505071505 | 11 | 283 | 3.2 | 12.9 | 0.00 | 0.00 | 0.00 | 61 | 1000.2 |
| 20260505071405 | 11 | 283 | 3.2 | 11.3 | 0.00 | 0.00 | 0.00 | 61 | 1000.1 |
| 20260505071305 | 11 | 284 | 3.2 | 9.7 | 0.00 | 0.00 | 0.00 | 61 | 1000.1 |
| 20260505071226 | 11 | 285 | 3.2 | 9.7 | 0.00 | 0.00 | 0.00 | 61 | 1000.1 |
| 20260505071105 | 11 | 286 | 3.2 | 9.7 | 0.00 | 0.00 | 0.00 | 60 | 1000.1 |
| 20260505071005 | 11 | 287 | 3.2 | 9.7 | 0.00 | 0.00 | 0.00 | 60 | 1000.1 |
| 20260505070926 | 11 | 287 | 3.2 | 9.7 | 0.00 | 0.00 | 0.00 | 60 | 1000.0 |
| 20260505070805 | 11 | 291 | 3.2 | 9.7 | 0.00 | 0.00 | 0.00 | 59 | 1000.0 |
| 20260505070705 | 11 | 298 | 3.2 | 9.7 | 0.00 | 0.00 | 0.00 | 59 | 1000.0 |
| 20260505070626 | 11 | 298 | 3.2 | 9.7 | 0.00 | 0.00 | 0.00 | 59 | 1000.0 |
| 20260505070505 | 12 | 296 | 3.2 | 9.7 | 0.00 | 0.00 | 0.00 | 59 | 1000.0 |
| 20260505070405 | 12 | 296 | 3.2 | 12.9 | 0.00 | 0.00 | 0.00 | 58 | 1000.0 |
| 20260505070326 | 12 | 294 | 3.2 | 12.9 | 0.00 | 0.00 | 0.00 | 58 | 1000.0 |
| 20260505070226 | 12 | 294 | 4.8 | 14.5 | 0.00 | 0.00 | 0.00 | 58 | 1000.0 |
| 20260505070105 | 12 | 293 | 4.8 | 14.5 | 0.00 | 0.00 | 0.00 | 57 | 1000.0 |
| 20260505070005 | 12 | 291 | 4.8 | 16.1 | 0.00 | 0.00 | 0.00 | 57 | 1000.1 |
| 20260505065905 | 12 | 292 | 6.4 | 16.1 | 0.00 | 0.00 | 0.00 | 57 | 1000.1 |
| 20260505065826 | 12 | 292 | 6.4 | 16.1 | 0.00 | 0.00 | 0.00 | 57 | 1000.0 |
| 20260505065726 | 12 | 289 | 6.4 | 16.1 | 0.00 | 0.00 | 0.00 | 58 | 1000.0 |
| 20260505065605 | 12 | 289 | 6.4 | 20.9 | 0.00 | 0.00 | 0.00 | 56 | 1000.1 |
| 20260505065505 | 12 | 291 | 6.4 | 20.9 | 0.00 | 0.00 | 0.00 | 56 | 1000.2 |
| 20260505065405 | 12 | 291 | 6.4 | 20.9 | 0.00 | 0.00 | 0.00 | 56 | 1000.2 |
| 20260505065305 | 12 | 293 | 6.4 | 20.9 | 0.00 | 0.00 | 0.00 | 56 | 1000.0 |
| 20260505065205 | 12 | 291 | 6.4 | 20.9 | 0.00 | 0.00 | 0.00 | 56 | 1000.0 |
| 20260505065105 | 12 | 293 | 6.4 | 20.9 | 0.00 | 0.00 | 0.00 | 56 | 1000.2 |
| 20260505065005 | 12 | 293 | 6.4 | 20.9 | 0.00 | 0.00 | 0.00 | 56 | 1000.1 |
| 20260505064905 | 12 | 293 | 4.8 | 20.9 | 0.00 | 0.00 | 0.00 | 56 | 1000.1 |
| 20260505064805 | 12 | 291 | 4.8 | 20.9 | 0.00 | 0.00 | 0.00 | 56 | 1000.1 |
| 20260505064705 | 12 | 289 | 4.8 | 20.9 | 0.00 | 0.00 | 0.00 | 56 | 1000.1 |
| 20260505064625 | 12 | 291 | 4.8 | 20.9 | 0.00 | 0.00 | 0.00 | 56 | 1000.3 |
| 20260505064505 | 12 | 291 | 4.8 | 17.7 | 0.00 | 0.00 | 0.00 | 57 | 1000.3 |
| 20260505064426 | 12 | 291 | 4.8 | 17.7 | 0.00 | 0.00 | 0.00 | 57 | 1000.3 |
| 20260505064305 | 12 | 291 | 4.8 | 17.7 | 0.00 | 0.00 | 0.00 | 57 | 1000.4 |
| 20260505064205 | 12 | 293 | 6.4 | 17.7 | 0.00 | 0.00 | 0.00 | 56 | 1000.4 |
| 20260505064104 | 12 | 292 | 4.8 | 20.9 | 0.00 | 0.00 | 0.00 | 56 | 1000.4 |
| 20260505064026 | 12 | 293 | 4.8 | 20.9 | 0.00 | 0.00 | 0.00 | 57 | 1000.5 |
| 20260505063905 | 12 | 291 | 4.8 | 20.9 | 0.00 | 0.00 | 0.00 | 56 | 1000.5 |
| 20260505063805 | 12 | 291 | 4.8 | 20.9 | 0.00 | 0.00 | 0.00 | 56 | 1000.3 |
| 20260505063704 | 12 | 293 | 4.8 | 20.9 | 0.00 | 0.00 | 0.00 | 55 | 1000.3 |
| 20260505063605 | 12 | 294 | 4.8 | 20.9 | 0.00 | 0.00 | 0.00 | 55 | 1000.3 |
| 20260505063506 | 12 | 294 | 4.8 | 20.9 | 0.00 | 0.00 | 0.00 | 55 | 1000.2 |
| 20260505063426 | 12 | 294 | 4.8 | 20.9 | 0.00 | 0.00 | 0.00 | 54 | 1000.2 |
| 20260505063305 | 12 | 293 | 4.8 | 20.9 | 0.00 | 0.00 | 0.00 | 54 | 1000.0 |
| 20260505063225 | 12 | 291 | 4.8 | 20.9 | 0.00 | 0.00 | 0.00 | 54 | 1000.0 |
| 20260505063104 | 12 | 289 | 4.8 | 19.3 | 0.00 | 0.00 | 0.00 | 54 | 1000.0 |
| 20260505063005 | 12 | 288 | 4.8 | 19.3 | 0.00 | 0.00 | 0.00 | 54 | 1000.0 |
| 20260505062926 | 12 | 286 | 4.8 | 19.3 | 0.00 | 0.00 | 0.00 | 54 | 1000.0 |
| 20260505062804 | 12 | 293 | 4.8 | 19.3 | 0.00 | 0.00 | 0.00 | 54 | 999.9 |
| 20260505062725 | 12 | 293 | 4.8 | 19.3 | 0.00 | 0.00 | 0.00 | 54 | 999.8 |
| 20260505062605 | 13 | 290 | 4.8 | 19.3 | 0.00 | 0.00 | 0.00 | 53 | 999.8 |
| 20260505062505 | 13 | 290 | 4.8 | 19.3 | 0.00 | 0.00 | 0.00 | 54 | 999.8 |
| 20260505062405 | 13 | 288 | 4.8 | 12.9 | 0.00 | 0.00 | 0.00 | 55 | 999.9 |
| 20260505062325 | 13 | 288 | 4.8 | 12.9 | 0.00 | 0.00 | 0.00 | 54 | 999.9 |
| 20260505062205 | 13 | 289 | 4.8 | 12.9 | 0.00 | 0.00 | 0.00 | 53 | 999.8 |
| 20260505062126 | 13 | 289 | 4.8 | 12.9 | 0.00 | 0.00 | 0.00 | 53 | 999.8 |
| 20260505062005 | 13 | 288 | 4.8 | 12.9 | 0.00 | 0.00 | 0.00 | 53 | 999.8 |
| 20260505061926 | 13 | 289 | 4.8 | 12.9 | 0.00 | 0.00 | 0.00 | 53 | 999.8 |
| 20260505061804 | 13 | 287 | 4.8 | 12.9 | 0.00 | 0.00 | 0.00 | 53 | 999.9 |
| 20260505061726 | 13 | 287 | 4.8 | 12.9 | 0.00 | 0.00 | 0.00 | 53 | 999.9 |
| 20260505061604 | 13 | 289 | 3.2 | 12.9 | 0.00 | 0.00 | 0.00 | 53 | 999.9 |
| 20260505061505 | 13 | 284 | 3.2 | 9.7 | 0.00 | 0.00 | 0.00 | 53 | 999.8 |
| 20260505061405 | 13 | 287 | 3.2 | 9.7 | 0.00 | 0.00 | 0.00 | 53 | 999.8 |
| 20260505061305 | 13 | 289 | 4.8 | 12.9 | 0.00 | 0.00 | 0.00 | 53 | 999.8 |
| 20260505061204 | 13 | 289 | 4.8 | 12.9 | 0.00 | 0.00 | 0.00 | 54 | 999.7 |
| 20260505061105 | 13 | 289 | 4.8 | 12.9 | 0.00 | 0.00 | 0.00 | 53 | 999.7 |
| 20260505061005 | 13 | 290 | 4.8 | 12.9 | 0.00 | 0.00 | 0.00 | 53 | 999.7 |
| 20260505060905 | 13 | 288 | 4.8 | 12.9 | 0.00 | 0.00 | 0.00 | 53 | 999.8 |
| 20260505060805 | 13 | 287 | 4.8 | 12.9 | 0.00 | 0.00 | 0.00 | 54 | 999.8 |
| 20260505060705 | 13 | 286 | 4.8 | 12.9 | 0.00 | 0.00 | 0.00 | 54 | 999.8 |
| 20260505060605 | 13 | 285 | 4.8 | 14.5 | 0.00 | 0.00 | 0.00 | 54 | 999.8 |
| 20260505060505 | 13 | 288 | 4.8 | 14.5 | 0.00 | 0.00 | 0.00 | 53 | 999.8 |
| 20260505060405 | 13 | 287 | 4.8 | 14.5 | 0.00 | 0.00 | 0.00 | 54 | 999.9 |
| 20260505060305 | 13 | 287 | 4.8 | 14.5 | 0.00 | 0.00 | 0.00 | 53 | 999.9 |
| 20260505060226 | 13 | 288 | 4.8 | 14.5 | 0.00 | 0.00 | 0.00 | 53 | 999.8 |
| 20260505060105 | 13 | 286 | 4.8 | 14.5 | 0.00 | 0.00 | 0.00 | 53 | 999.8 |
| 20260505060005 | 13 | 290 | 4.8 | 14.5 | 0.00 | 0.00 | 0.00 | 53 | 999.8 |
| 20260505055905 | 13 | 294 | 4.8 | 14.5 | 0.00 | 0.00 | 0.00 | 53 | 999.8 |
| 20260505055805 | 13 | 296 | 4.8 | 14.5 | 0.00 | 0.00 | 0.00 | 52 | 999.8 |
| 20260505055704 | 13 | 300 | 3.2 | 14.5 | 0.00 | 0.00 | 0.00 | 52 | 999.7 |
| 20260505055605 | 13 | 302 | 3.2 | 11.3 | 0.00 | 0.00 | 0.00 | 53 | 999.7 |
| 20260505055505 | 13 | 303 | 3.2 | 11.3 | 0.00 | 0.00 | 0.00 | 53 | 999.7 |
| 20260505055404 | 13 | 308 | 3.2 | 9.7 | 0.00 | 0.00 | 0.00 | 52 | 999.6 |
| 20260505055325 | 13 | 305 | 3.2 | 9.7 | 0.00 | 0.00 | 0.00 | 52 | 999.6 |
| 20260505055226 | 13 | 304 | 3.2 | 14.5 | 0.00 | 0.00 | 0.00 | 52 | 999.6 |
| 20260505055105 | 13 | 306 | 3.2 | 14.5 | 0.00 | 0.00 | 0.00 | 52 | 999.5 |
| 20260505055004 | 13 | 307 | 3.2 | 14.5 | 0.00 | 0.00 | 0.00 | 53 | 999.5 |
| 20260505054926 | 13 | 300 | 3.2 | 14.5 | 0.00 | 0.00 | 0.00 | 52 | 999.4 |
| 20260505054805 | 13 | 300 | 3.2 | 14.5 | 0.00 | 0.00 | 0.00 | 52 | 999.5 |
| 20260505054705 | 13 | 297 | 3.2 | 14.5 | 0.00 | 0.00 | 0.00 | 53 | 999.5 |
| 20260505054604 | 13 | 298 | 3.2 | 14.5 | 0.00 | 0.00 | 0.00 | 52 | 999.5 |
| 20260505054504 | 13 | 295 | 3.2 | 14.5 | 0.00 | 0.00 | 0.00 | 52 | 999.5 |
| 20260505054404 | 13 | 290 | 3.2 | 14.5 | 0.00 | 0.00 | 0.00 | 52 | 999.7 |
| 20260505054305 | 13 | 286 | 3.2 | 9.7 | 0.00 | 0.00 | 0.00 | 53 | 999.6 |
| 20260505054225 | 13 | 286 | 3.2 | 9.7 | 0.00 | 0.00 | 0.00 | 52 | 999.6 |
| 20260505054104 | 13 | 286 | 4.8 | 11.3 | 0.00 | 0.00 | 0.00 | 52 | 999.5 |
| 20260505054004 | 13 | 286 | 4.8 | 11.3 | 0.00 | 0.00 | 0.00 | 52 | 999.5 |
| 20260505053904 | 13 | 285 | 4.8 | 11.3 | 0.00 | 0.00 | 0.00 | 52 | 999.6 |
| 20260505053805 | 13 | 285 | 4.8 | 11.3 | 0.00 | 0.00 | 0.00 | 51 | 999.6 |
| 20260505053704 | 13 | 276 | 6.4 | 19.3 | 0.00 | 0.00 | 0.00 | 51 | 999.6 |
| 20260505053605 | 13 | 279 | 6.4 | 25.7 | 0.00 | 0.00 | 0.00 | 52 | 999.8 |
| 20260505053504 | 13 | 282 | 6.4 | 25.7 | 0.00 | 0.00 | 0.00 | 51 | 999.8 |
| 20260505053404 | 14 | 283 | 6.4 | 25.7 | 0.00 | 0.00 | 0.00 | 51 | 999.8 |
| 20260505053326 | 14 | 284 | 6.4 | 25.7 | 0.00 | 0.00 | 0.00 | 51 | 999.8 |
| 20260505053205 | 14 | 284 | 8.0 | 25.7 | 0.00 | 0.00 | 0.00 | 51 | 999.8 |
| 20260505053126 | 14 | 284 | 8.0 | 25.7 | 0.00 | 0.00 | 0.00 | 51 | 999.7 |
| 20260505053004 | 14 | 284 | 8.0 | 25.7 | 0.00 | 0.00 | 0.00 | 51 | 999.8 |
| 20260505052904 | 14 | 282 | 8.0 | 25.7 | 0.00 | 0.00 | 0.00 | 50 | 999.8 |
| 20260505052805 | 14 | 280 | 8.0 | 25.7 | 0.00 | 0.00 | 0.00 | 50 | 999.6 |
| 20260505052726 | 14 | 284 | 8.0 | 25.7 | 0.00 | 0.00 | 0.00 | 49 | 999.6 |
| 20260505052626 | 14 | 281 | 6.4 | 24.1 | 0.00 | 0.00 | 0.00 | 50 | 999.6 |
| 20260505052526 | 14 | 279 | 6.4 | 17.7 | 0.00 | 0.00 | 0.00 | 51 | 999.6 |
| 20260505052404 | 14 | 280 | 6.4 | 17.7 | 0.00 | 0.00 | 0.00 | 51 | 999.7 |
| 20260505052305 | 14 | 277 | 6.4 | 17.7 | 0.00 | 0.00 | 0.00 | 52 | 999.7 |
| 20260505052205 | 14 | 276 | 4.8 | 17.7 | 0.00 | 0.00 | 0.00 | 52 | 999.7 |
| 20260505052104 | 14 | 277 | 4.8 | 17.7 | 0.00 | 0.00 | 0.00 | 52 | 999.7 |
| 20260505052004 | 14 | 274 | 4.8 | 17.7 | 0.00 | 0.00 | 0.00 | 53 | 999.7 |
| 20260505051904 | 14 | 276 | 4.8 | 17.7 | 0.00 | 0.00 | 0.00 | 53 | 999.7 |
| 20260505051804 | 14 | 275 | 4.8 | 17.7 | 0.00 | 0.00 | 0.00 | 53 | 999.5 |
| 20260505051704 | 14 | 277 | 4.8 | 17.7 | 0.00 | 0.00 | 0.00 | 52 | 999.4 |
| 20260505051605 | 14 | 280 | 4.8 | 17.7 | 0.00 | 0.00 | 0.00 | 52 | 999.4 |
| 20260505051505 | 14 | 276 | 4.8 | 16.1 | 0.00 | 0.00 | 0.00 | 52 | 999.3 |
| 20260505051405 | 14 | 271 | 4.8 | 11.3 | 0.00 | 0.00 | 0.00 | 54 | 999.3 |
| 20260505051304 | 14 | 270 | 4.8 | 11.3 | 0.00 | 0.00 | 0.00 | 53 | 999.4 |
| 20260505051205 | 14 | 272 | 4.8 | 11.3 | 0.00 | 0.00 | 0.00 | 52 | 999.4 |
| 20260505051105 | 14 | 271 | 4.8 | 11.3 | 0.00 | 0.00 | 0.00 | 54 | 999.4 |
| 20260505051005 | 14 | 267 | 4.8 | 11.3 | 0.00 | 0.00 | 0.00 | 54 | 999.3 |
| 20260505050904 | 14 | 267 | 4.8 | 11.3 | 0.00 | 0.00 | 0.00 | 54 | 999.3 |
| 20260505050804 | 14 | 267 | 4.8 | 11.3 | 0.00 | 0.00 | 0.00 | 54 | 999.3 |
| 20260505050705 | 14 | 266 | 3.2 | 11.3 | 0.00 | 0.00 | 0.00 | 54 | 999.3 |
| 20260505050604 | 14 | 261 | 3.2 | 11.3 | 0.00 | 0.00 | 0.00 | 54 | 999.3 |
| 20260505050505 | 14 | 261 | 3.2 | 9.7 | 0.00 | 0.00 | 0.00 | 55 | 999.0 |
| 20260505050404 | 13 | 257 | 3.2 | 9.7 | 0.00 | 0.00 | 0.00 | 54 | 998.9 |
| 20260505050305 | 13 | 258 | 3.2 | 9.7 | 0.00 | 0.00 | 0.00 | 55 | 998.9 |
| 20260505050205 | 13 | 257 | 3.2 | 11.3 | 0.00 | 0.00 | 0.00 | 56 | 998.9 |
| 20260505050104 | 13 | 257 | 3.2 | 11.3 | 0.00 | 0.00 | 0.00 | 57 | 998.9 |
| 20260505041725 | 12 | 0 | 0.0 | 3.2 | 0.00 | 0.00 | 0.00 | 76 | 998.2 |
| 20260505041604 | 12 | 0 | 0.0 | 3.2 | 0.00 | 0.00 | 0.00 | 76 | 998.2 |
| 20260505041525 | 12 | 0 | 0.0 | 4.8 | 0.00 | 0.00 | 0.00 | 76 | 998.2 |
| 20260505041404 | 12 | 247 | 1.6 | 4.8 | 0.00 | 0.00 | 0.00 | 76 | 998.2 |
| 20260505041304 | 12 | 251 | 1.6 | 4.8 | 0.00 | 0.00 | 0.00 | 75 | 998.1 |
| 20260505041205 | 12 | 255 | 1.6 | 4.8 | 0.00 | 0.00 | 0.00 | 75 | 998.1 |
| 20260505041104 | 12 | 255 | 1.6 | 4.8 | 0.00 | 0.00 | 0.00 | 75 | 998.3 |
| 20260505041025 | 12 | 255 | 1.6 | 4.8 | 0.00 | 0.00 | 0.00 | 75 | 998.3 |
| 20260505040904 | 12 | 265 | 1.6 | 4.8 | 0.00 | 0.00 | 0.00 | 75 | 998.4 |
| 20260505040805 | 12 | 265 | 1.6 | 6.4 | 0.00 | 0.00 | 0.00 | 76 | 998.5 |
| 20260505040704 | 12 | 259 | 1.6 | 9.7 | 0.00 | 0.00 | 0.00 | 75 | 998.5 |
| 20260505040604 | 12 | 261 | 1.6 | 9.7 | 0.00 | 0.00 | 0.00 | 75 | 998.5 |
| 20260505040505 | 12 | 262 | 3.2 | 9.7 | 0.00 | 0.00 | 0.00 | 75 | 998.4 |
| 20260505040426 | 12 | 263 | 3.2 | 9.7 | 0.00 | 0.00 | 0.00 | 75 | 998.4 |
| 20260505040304 | 12 | 263 | 3.2 | 9.7 | 0.00 | 0.00 | 0.00 | 75 | 998.4 |
| 20260505040205 | 12 | 262 | 3.2 | 9.7 | 0.00 | 0.00 | 0.00 | 75 | 998.4 |
| 20260505040126 | 12 | 262 | 3.2 | 9.7 | 0.00 | 0.00 | 0.00 | 75 | 998.5 |
| 20260505040006 | 12 | 261 | 3.2 | 9.7 | 0.00 | 0.00 | 0.00 | 75 | 998.7 |
| 20260505035905 | 12 | 258 | 3.2 | 9.7 | 0.00 | 0.00 | 0.00 | 76 | 998.8 |
| 20260505035804 | 12 | 257 | 3.2 | 9.7 | 0.00 | 0.00 | 0.00 | 76 | 998.8 |
| 20260505035704 | 12 | 259 | 1.6 | 9.7 | 0.00 | 0.00 | 0.00 | 77 | 998.9 |
| 20260505035604 | 12 | 260 | 3.2 | 8.0 | 0.00 | 0.00 | 0.00 | 77 | 998.9 |
| 20260505035504 | 12 | 259 | 3.2 | 8.0 | 0.00 | 0.00 | 0.00 | 77 | 998.9 |
| 20260505035404 | 12 | 260 | 3.2 | 8.0 | 0.00 | 0.00 | 0.00 | 77 | 998.7 |
| 20260505035304 | 12 | 259 | 3.2 | 8.0 | 0.00 | 0.00 | 0.00 | 77 | 998.7 |
| 20260505035205 | 12 | 258 | 3.2 | 8.0 | 0.00 | 0.00 | 0.00 | 77 | 998.6 |
| 20260505035105 | 12 | 258 | 3.2 | 8.0 | 0.00 | 0.00 | 0.00 | 77 | 998.7 |
| 20260505035004 | 12 | 256 | 3.2 | 8.0 | 0.00 | 0.00 | 0.00 | 78 | 998.7 |
| 20260505034904 | 12 | 256 | 3.2 | 8.0 | 0.00 | 0.00 | 0.00 | 78 | 998.8 |
| 20260505034804 | 12 | 253 | 3.2 | 9.7 | 0.00 | 0.00 | 0.00 | 78 | 998.8 |
| 20260505034726 | 12 | 251 | 3.2 | 9.7 | 0.00 | 0.00 | 0.00 | 78 | 998.8 |
| 20260505034604 | 12 | 249 | 3.2 | 9.7 | 0.00 | 0.00 | 0.00 | 79 | 998.8 |
| 20260505034526 | 12 | 250 | 3.2 | 9.7 | 0.00 | 0.00 | 0.00 | 79 | 998.8 |
| 20260505034404 | 12 | 249 | 3.2 | 9.7 | 0.00 | 0.00 | 0.00 | 79 | 998.7 |
| 20260505034305 | 12 | 249 | 3.2 | 9.7 | 0.00 | 0.00 | 0.00 | 79 | 998.7 |
| 20260505034205 | 12 | 251 | 3.2 | 9.7 | 0.00 | 0.00 | 0.00 | 79 | 998.8 |
| 20260505034104 | 12 | 253 | 3.2 | 9.7 | 0.00 | 0.00 | 0.00 | 79 | 998.9 |
| 20260505034004 | 12 | 254 | 3.2 | 9.7 | 0.00 | 0.00 | 0.00 | 79 | 998.9 |
| 20260505033925 | 12 | 254 | 3.2 | 9.7 | 0.00 | 0.00 | 0.00 | 79 | 998.9 |
| 20260505033804 | 12 | 258 | 3.2 | 8.0 | 0.00 | 0.00 | 0.00 | 79 | 998.9 |
| 20260505033704 | 12 | 263 | 3.2 | 11.3 | 0.00 | 0.00 | 0.00 | 80 | 998.9 |
| 20260505033604 | 12 | 257 | 3.2 | 11.3 | 0.00 | 0.00 | 0.00 | 80 | 998.9 |
| 20260505033504 | 12 | 254 | 3.2 | 11.3 | 0.00 | 0.00 | 0.00 | 80 | 998.9 |
| 20260505033405 | 12 | 252 | 3.2 | 11.3 | 0.00 | 0.00 | 0.00 | 80 | 998.9 |
| 20260505033325 | 12 | 252 | 3.2 | 11.3 | 0.00 | 0.00 | 0.00 | 80 | 998.9 |
| 20260505033225 | 12 | 253 | 3.2 | 11.3 | 0.00 | 0.00 | 0.00 | 80 | 998.9 |
| 20260505033105 | 12 | 250 | 4.8 | 12.9 | 0.00 | 0.00 | 0.00 | 80 | 999.0 |
| 20260505033026 | 12 | 249 | 4.8 | 14.5 | 0.00 | 0.00 | 0.00 | 80 | 999.0 |
| 20260505032905 | 12 | 250 | 6.4 | 14.5 | 0.00 | 0.00 | 0.00 | 81 | 998.9 |
| 20260505032804 | 12 | 249 | 6.4 | 14.5 | 0.00 | 0.00 | 0.00 | 80 | 998.9 |
| 20260505032704 | 12 | 248 | 6.4 | 14.5 | 0.00 | 0.00 | 0.00 | 80 | 998.9 |
| 20260505032604 | 12 | 248 | 6.4 | 14.5 | 0.00 | 0.00 | 0.00 | 80 | 998.9 |
| 20260505032504 | 12 | 250 | 6.4 | 14.5 | 0.00 | 0.00 | 0.00 | 80 | 998.9 |
| 20260505032404 | 12 | 252 | 6.4 | 14.5 | 0.00 | 0.00 | 0.00 | 80 | 998.8 |
| 20260505032305 | 12 | 251 | 6.4 | 14.5 | 0.00 | 0.00 | 0.00 | 80 | 998.9 |
| 20260505032204 | 12 | 252 | 6.4 | 14.5 | 0.00 | 0.00 | 0.00 | 80 | 998.9 |
| 20260505032125 | 12 | 253 | 6.4 | 14.5 | 0.00 | 0.00 | 0.00 | 80 | 998.9 |
| 20260505032025 | 12 | 256 | 6.4 | 14.5 | 0.00 | 0.00 | 0.00 | 79 | 998.9 |
| 20260505031904 | 12 | 257 | 6.4 | 14.5 | 0.00 | 0.00 | 0.00 | 79 | 998.8 |
| 20260505031804 | 12 | 258 | 6.4 | 14.5 | 0.00 | 0.00 | 0.00 | 79 | 998.7 |
| 20260505031704 | 12 | 258 | 6.4 | 14.5 | 0.00 | 0.00 | 0.00 | 79 | 998.7 |
| 20260505031604 | 12 | 260 | 6.4 | 14.5 | 0.00 | 0.00 | 0.00 | 79 | 998.6 |
| 20260505031504 | 12 | 258 | 4.8 | 14.5 | 0.00 | 0.00 | 0.00 | 79 | 998.6 |
| 20260505031404 | 12 | 259 | 4.8 | 14.5 | 0.00 | 0.00 | 0.00 | 79 | 998.6 |
| 20260505031304 | 12 | 258 | 4.8 | 14.5 | 0.00 | 0.00 | 0.00 | 79 | 998.6 |
| 20260505031204 | 12 | 256 | 4.8 | 14.5 | 0.00 | 0.00 | 0.00 | 79 | 998.6 |
| 20260505031104 | 12 | 255 | 4.8 | 14.5 | 0.00 | 0.00 | 0.00 | 79 | 998.6 |
| 20260505031004 | 12 | 256 | 4.8 | 12.9 | 0.00 | 0.00 | 0.00 | 79 | 998.6 |
| 20260505030904 | 12 | 253 | 4.8 | 14.5 | 0.00 | 0.00 | 0.00 | 79 | 998.6 |
| 20260505030825 | 12 | 252 | 4.8 | 14.5 | 0.00 | 0.00 | 0.00 | 79 | 998.5 |
| 20260505030704 | 12 | 251 | 4.8 | 14.5 | 0.00 | 0.00 | 0.00 | 79 | 998.4 |
| 20260505030604 | 12 | 248 | 4.8 | 14.5 | 0.00 | 0.00 | 0.00 | 79 | 998.4 |
| 20260505030504 | 12 | 248 | 4.8 | 14.5 | 0.00 | 0.00 | 0.00 | 79 | 998.3 |
| 20260505030404 | 12 | 245 | 4.8 | 14.5 | 0.00 | 0.00 | 0.00 | 79 | 998.3 |
| 20260505030325 | 12 | 242 | 4.8 | 14.5 | 0.00 | 0.00 | 0.00 | 79 | 998.2 |
| 20260505030204 | 12 | 244 | 4.8 | 14.5 | 0.00 | 0.00 | 0.00 | 79 | 998.2 |
| 20260505030104 | 12 | 240 | 4.8 | 14.5 | 0.00 | 0.00 | 0.00 | 79 | 998.2 |
| 20260505030026 | 12 | 240 | 4.8 | 14.5 | 0.00 | 0.00 | 0.00 | 79 | 998.1 |
| 20260505025925 | 12 | 236 | 4.8 | 14.5 | 0.00 | 0.00 | 0.00 | 79 | 998.1 |
| 20260505025804 | 12 | 234 | 4.8 | 14.5 | 0.00 | 0.00 | 0.00 | 79 | 998.2 |
| 20260505025705 | 12 | 231 | 4.8 | 16.1 | 0.00 | 0.00 | 0.00 | 79 | 998.3 |
| 20260505025626 | 12 | 235 | 4.8 | 16.1 | 0.00 | 0.00 | 0.00 | 79 | 998.3 |
| 20260505025504 | 13 | 239 | 6.4 | 16.1 | 0.00 | 0.00 | 0.00 | 79 | 998.3 |
| 20260505025404 | 13 | 241 | 6.4 | 16.1 | 0.00 | 0.00 | 0.00 | 79 | 998.3 |
| 20260505025325 | 13 | 241 | 6.4 | 16.1 | 0.00 | 0.00 | 0.00 | 79 | 998.3 |
| 20260505025204 | 13 | 240 | 4.8 | 16.1 | 0.00 | 0.00 | 0.00 | 79 | 998.3 |
| 20260505025104 | 13 | 246 | 6.4 | 16.1 | 0.00 | 0.00 | 0.00 | 79 | 998.3 |
| 20260505025004 | 13 | 247 | 6.4 | 16.1 | 0.00 | 0.00 | 0.00 | 79 | 998.3 |
| 20260505024905 | 13 | 247 | 6.4 | 16.1 | 0.00 | 0.00 | 0.00 | 79 | 998.3 |
| 20260505024804 | 13 | 246 | 6.4 | 16.1 | 0.00 | 0.00 | 0.00 | 79 | 998.3 |
| 20260505024704 | 12 | 245 | 6.4 | 16.1 | 0.00 | 0.00 | 0.00 | 79 | 998.3 |
| 20260505024604 | 12 | 243 | 6.4 | 16.1 | 0.00 | 0.00 | 0.00 | 79 | 998.3 |
| 20260505024504 | 12 | 242 | 6.4 | 16.1 | 0.00 | 0.00 | 0.00 | 79 | 998.4 |
| 20260505024404 | 12 | 239 | 6.4 | 19.3 | 0.00 | 0.00 | 0.00 | 80 | 998.3 |
| 20260505024304 | 12 | 242 | 6.4 | 19.3 | 0.00 | 0.00 | 0.00 | 80 | 998.3 |
| 20260505024204 | 12 | 241 | 6.4 | 19.3 | 0.00 | 0.00 | 0.00 | 80 | 998.3 |
| 20260505024104 | 12 | 237 | 8.0 | 19.3 | 0.00 | 0.00 | 0.00 | 80 | 998.3 |
| 20260505024004 | 12 | 235 | 8.0 | 19.3 | 0.00 | 0.00 | 0.00 | 79 | 998.3 |
| 20260505023904 | 12 | 238 | 8.0 | 19.3 | 0.00 | 0.00 | 0.00 | 79 | 998.4 |
| 20260505023805 | 12 | 240 | 9.7 | 19.3 | 0.00 | 0.00 | 0.00 | 79 | 998.4 |
| 20260505023704 | 12 | 243 | 9.7 | 19.3 | 0.00 | 0.00 | 0.00 | 79 | 998.5 |
| 20260505023604 | 12 | 244 | 9.7 | 24.1 | 0.00 | 0.00 | 0.00 | 79 | 998.5 |
| 20260505023504 | 12 | 245 | 8.0 | 24.1 | 0.00 | 0.00 | 0.00 | 79 | 998.4 |
| 20260505023425 | 12 | 244 | 8.0 | 24.1 | 0.00 | 0.00 | 0.00 | 79 | 998.4 |
| 20260505023325 | 12 | 244 | 8.0 | 24.1 | 0.00 | 0.00 | 0.00 | 79 | 998.4 |
| 20260505023225 | 12 | 245 | 8.0 | 24.1 | 0.00 | 0.00 | 0.00 | 79 | 998.4 |
| 20260505023104 | 12 | 247 | 8.0 | 24.1 | 0.00 | 0.00 | 0.00 | 79 | 998.6 |
| 20260505023004 | 12 | 250 | 6.4 | 24.1 | 0.00 | 0.00 | 0.00 | 79 | 998.6 |
| 20260505022904 | 12 | 249 | 8.0 | 24.1 | 0.00 | 0.00 | 0.00 | 79 | 998.4 |
| 20260505022805 | 12 | 250 | 6.4 | 24.1 | 0.00 | 0.00 | 0.00 | 78 | 998.4 |
| 20260505022705 | 12 | 250 | 6.4 | 24.1 | 0.00 | 0.00 | 0.00 | 78 | 998.4 |
| 20260505022604 | 12 | 248 | 6.4 | 20.9 | 0.00 | 0.00 | 0.00 | 78 | 998.2 |
| 20260505022504 | 12 | 248 | 8.0 | 20.9 | 0.00 | 0.00 | 0.00 | 78 | 998.2 |
| 20260505022404 | 12 | 248 | 8.0 | 22.5 | 0.00 | 0.00 | 0.00 | 78 | 998.5 |
| 20260505022304 | 12 | 249 | 9.7 | 22.5 | 0.00 | 0.00 | 0.00 | 78 | 998.5 |
| 20260505022204 | 12 | 249 | 9.7 | 27.4 | 0.00 | 0.00 | 0.00 | 77 | 998.1 |
| 20260505022104 | 12 | 248 | 11.3 | 27.4 | 0.00 | 0.00 | 0.00 | 77 | 998.1 |
| 20260505022004 | 12 | 246 | 11.3 | 27.4 | 0.00 | 0.00 | 0.00 | 77 | 998.1 |
| 20260505021904 | 12 | 246 | 11.3 | 27.4 | 0.00 | 0.00 | 0.00 | 77 | 997.8 |
| 20260505021804 | 12 | 245 | 11.3 | 27.4 | 0.00 | 0.00 | 0.00 | 77 | 997.8 |
| 20260505021725 | 12 | 244 | 11.3 | 27.4 | 0.00 | 0.00 | 0.00 | 76 | 997.8 |
| 20260505021604 | 12 | 245 | 12.9 | 30.6 | 0.00 | 0.00 | 0.00 | 76 | 997.6 |
| 20260505021504 | 13 | 245 | 12.9 | 30.6 | 0.00 | 0.00 | 0.00 | 75 | 997.6 |
| 20260505021404 | 13 | 245 | 12.9 | 30.6 | 0.00 | 0.00 | 0.00 | 75 | 997.5 |
| 20260505021304 | 13 | 244 | 12.9 | 30.6 | 0.00 | 0.00 | 0.00 | 75 | 997.5 |
| 20260505021204 | 13 | 242 | 12.9 | 30.6 | 0.00 | 0.00 | 0.00 | 74 | 997.5 |
| 20260505021105 | 13 | 244 | 12.9 | 30.6 | 0.00 | 0.00 | 0.00 | 74 | 997.3 |
| 20260505021004 | 13 | 243 | 12.9 | 32.2 | 0.00 | 0.00 | 0.00 | 73 | 997.3 |
| 20260505020904 | 13 | 243 | 12.9 | 32.2 | 0.00 | 0.00 | 0.00 | 72 | 997.3 |
| 20260505020825 | 14 | 242 | 12.9 | 32.2 | 0.00 | 0.00 | 0.00 | 72 | 997.3 |
| 20260505020725 | 14 | 240 | 12.9 | 32.2 | 0.00 | 0.00 | 0.00 | 72 | 997.2 |
| 20260505020625 | 14 | 238 | 11.3 | 32.2 | 0.00 | 0.00 | 0.00 | 72 | 997.0 |
| 20260505020504 | 14 | 236 | 11.3 | 32.2 | 0.00 | 0.00 | 0.00 | 73 | 997.0 |
| 20260505020425 | 14 | 235 | 11.3 | 32.2 | 0.00 | 0.00 | 0.00 | 73 | 996.8 |
| 20260505020304 | 14 | 235 | 11.3 | 32.2 | 0.00 | 0.00 | 0.00 | 73 | 996.9 |
| 20260505020204 | 14 | 235 | 11.3 | 32.2 | 0.00 | 0.00 | 0.00 | 73 | 996.9 |
| 20260505020104 | 14 | 233 | 9.7 | 32.2 | 0.00 | 0.00 | 0.00 | 74 | 996.9 |
| 20260505020004 | 13 | 232 | 9.7 | 24.1 | 0.00 | 0.00 | 0.00 | 74 | 996.9 |
| 20260505015904 | 13 | 229 | 9.7 | 24.1 | 0.00 | 0.00 | 0.00 | 74 | 996.9 |
| 20260505015805 | 13 | 227 | 9.7 | 24.1 | 0.00 | 0.00 | 0.00 | 74 | 996.7 |
| 20260505015704 | 13 | 228 | 9.7 | 24.1 | 0.00 | 0.00 | 0.00 | 74 | 996.7 |
| 20260505015604 | 13 | 230 | 9.7 | 24.1 | 0.00 | 0.00 | 0.00 | 74 | 996.8 |
| 20260505015504 | 13 | 230 | 9.7 | 24.1 | 0.00 | 0.00 | 0.00 | 74 | 996.7 |
| 20260505015425 | 13 | 230 | 9.7 | 24.1 | 0.00 | 0.00 | 0.00 | 74 | 996.7 |
| 20260505015325 | 13 | 229 | 9.7 | 24.1 | 0.00 | 0.00 | 0.00 | 74 | 996.6 |
| 20260505015204 | 14 | 226 | 8.0 | 24.1 | 0.00 | 0.00 | 0.00 | 74 | 996.6 |
| 20260505015104 | 14 | 225 | 9.7 | 22.5 | 0.00 | 0.00 | 0.00 | 73 | 996.7 |
| 20260505015004 | 14 | 224 | 9.7 | 25.7 | 0.00 | 0.00 | 0.00 | 73 | 996.7 |
| 20260505014904 | 14 | 222 | 9.7 | 25.7 | 0.00 | 0.00 | 0.00 | 73 | 996.7 |
| 20260505014804 | 14 | 225 | 9.7 | 25.7 | 0.00 | 0.00 | 0.00 | 73 | 996.6 |
| 20260505014704 | 14 | 225 | 9.7 | 25.7 | 0.00 | 0.00 | 0.00 | 72 | 996.6 |
| 20260505014625 | 14 | 223 | 9.7 | 25.7 | 0.00 | 0.00 | 0.00 | 72 | 996.5 |
| 20260505014504 | 14 | 217 | 9.7 | 25.7 | 0.00 | 0.00 | 0.00 | 73 | 996.5 |
| 20260505014404 | 14 | 214 | 9.7 | 25.7 | 0.00 | 0.00 | 0.00 | 73 | 996.5 |
| 20260505014325 | 14 | 214 | 9.7 | 25.7 | 0.00 | 0.00 | 0.00 | 73 | 996.3 |
| 20260505014225 | 14 | 211 | 9.7 | 25.7 | 0.00 | 0.00 | 0.00 | 73 | 996.3 |
| 20260505014104 | 14 | 208 | 9.7 | 25.7 | 0.00 | 0.00 | 0.00 | 73 | 996.4 |
| 20260505014004 | 14 | 205 | 9.7 | 25.7 | 0.00 | 0.00 | 0.00 | 73 | 996.2 |
| 20260505013925 | 14 | 207 | 9.7 | 25.7 | 0.00 | 0.00 | 0.00 | 73 | 996.2 |
| 20260505013804 | 15 | 208 | 9.7 | 25.7 | 0.00 | 0.00 | 0.00 | 73 | 996.1 |
| 20260505013725 | 15 | 210 | 9.7 | 25.7 | 0.00 | 0.00 | 0.00 | 73 | 996.1 |
| 20260505013604 | 15 | 212 | 9.7 | 25.7 | 0.00 | 0.00 | 0.00 | 73 | 996.0 |
| 20260505013504 | 15 | 213 | 9.7 | 24.1 | 0.00 | 0.00 | 0.00 | 73 | 996.0 |
| 20260505013404 | 15 | 216 | 9.7 | 38.6 | 0.00 | 0.00 | 0.00 | 72 | 996.0 |
| 20260505013304 | 15 | 221 | 11.3 | 38.6 | 0.00 | 0.00 | 0.00 | 72 | 996.2 |
| 20260505013225 | 15 | 222 | 11.3 | 38.6 | 0.00 | 0.00 | 0.00 | 73 | 996.2 |
| 20260505013104 | 15 | 225 | 11.3 | 38.6 | 0.00 | 0.00 | 0.00 | 73 | 996.0 |
| 20260505013004 | 15 | 224 | 11.3 | 38.6 | 0.00 | 0.00 | 0.00 | 73 | 996.0 |
| 20260505012925 | 15 | 225 | 11.3 | 38.6 | 0.00 | 0.00 | 0.00 | 72 | 996.0 |
| 20260505012804 | 15 | 222 | 11.3 | 38.6 | 0.00 | 0.00 | 0.00 | 72 | 996.0 |
| 20260505012704 | 15 | 220 | 11.3 | 38.6 | 0.00 | 0.00 | 0.00 | 72 | 996.1 |
| 20260505012604 | 15 | 221 | 11.3 | 38.6 | 0.00 | 0.00 | 0.00 | 72 | 996.1 |
| 20260505012504 | 15 | 218 | 11.3 | 38.6 | 0.00 | 0.00 | 0.00 | 72 | 996.0 |
| 20260505012404 | 15 | 218 | 11.3 | 29.0 | 0.00 | 0.00 | 0.00 | 72 | 996.0 |
| 20260505012304 | 15 | 214 | 11.3 | 29.0 | 0.00 | 0.00 | 0.00 | 72 | 996.0 |
| 20260505012204 | 15 | 212 | 11.3 | 29.0 | 0.00 | 0.00 | 0.00 | 72 | 996.0 |
| 20260505012125 | 16 | 215 | 11.3 | 29.0 | 0.00 | 0.00 | 0.00 | 72 | 996.0 |
| 20260505012004 | 16 | 212 | 11.3 | 29.0 | 0.00 | 0.00 | 0.00 | 72 | 996.0 |
| 20260505011904 | 16 | 208 | 11.3 | 29.0 | 0.00 | 0.00 | 0.00 | 72 | 996.0 |
| 20260505011825 | 16 | 207 | 11.3 | 29.0 | 0.00 | 0.00 | 0.00 | 71 | 996.0 |
| 20260505011704 | 16 | 210 | 12.9 | 27.4 | 0.00 | 0.00 | 0.00 | 70 | 996.1 |
| 20260505011604 | 16 | 211 | 12.9 | 27.4 | 0.00 | 0.00 | 0.00 | 69 | 996.1 |
| 20260505011504 | 16 | 212 | 12.9 | 29.0 | 0.00 | 0.00 | 0.00 | 68 | 995.8 |
| 20260505011404 | 16 | 211 | 12.9 | 29.0 | 0.00 | 0.00 | 0.00 | 69 | 995.7 |
| 20260505011304 | 16 | 211 | 12.9 | 29.0 | 0.00 | 0.00 | 0.00 | 68 | 995.7 |
| 20260505011204 | 17 | 214 | 12.9 | 29.0 | 0.00 | 0.00 | 0.00 | 68 | 995.8 |
| 20260505011104 | 17 | 216 | 12.9 | 29.0 | 0.00 | 0.00 | 0.00 | 67 | 995.7 |
| 20260505011004 | 17 | 218 | 12.9 | 29.0 | 0.00 | 0.00 | 0.00 | 67 | 995.7 |
| 20260505010904 | 17 | 217 | 12.9 | 29.0 | 0.00 | 0.00 | 0.00 | 66 | 996.1 |
| 20260505010804 | 17 | 218 | 12.9 | 29.0 | 0.00 | 0.00 | 0.00 | 66 | 996.1 |
| 20260505010704 | 17 | 216 | 11.3 | 29.0 | 0.00 | 0.00 | 0.00 | 66 | 995.9 |
| 20260505010605 | 17 | 215 | 11.3 | 29.0 | 0.00 | 0.00 | 0.00 | 65 | 995.9 |
| 20260505010505 | 17 | 218 | 11.3 | 27.4 | 0.00 | 0.00 | 0.00 | 64 | 995.9 |
| 20260505010404 | 17 | 219 | 11.3 | 27.4 | 0.00 | 0.00 | 0.00 | 64 | 995.7 |
| 20260505010304 | 18 | 218 | 11.3 | 27.4 | 0.00 | 0.00 | 0.00 | 64 | 995.7 |
| 20260505010204 | 18 | 216 | 11.3 | 27.4 | 0.00 | 0.00 | 0.00 | 64 | 995.7 |
| 20260505010104 | 18 | 211 | 11.3 | 27.4 | 0.00 | 0.00 | 0.00 | 63 | 995.7 |
| 20260505010004 | 18 | 209 | 11.3 | 27.4 | 0.00 | 0.00 | 0.00 | 63 | 995.7 |
| 20260505005904 | 18 | 210 | 11.3 | 27.4 | 0.00 | 0.00 | 0.00 | 63 | 995.6 |
| 20260505005825 | 18 | 211 | 11.3 | 25.7 | 0.00 | 0.00 | 0.00 | 63 | 995.6 |
| 20260505005704 | 18 | 213 | 11.3 | 25.7 | 0.00 | 0.00 | 0.00 | 62 | 995.6 |
| 20260505005604 | 18 | 215 | 11.3 | 25.7 | 0.00 | 0.00 | 0.00 | 62 | 995.6 |
| 20260505005504 | 18 | 211 | 11.3 | 25.7 | 0.00 | 0.00 | 0.00 | 62 | 995.6 |
| 20260505005404 | 18 | 212 | 11.3 | 24.1 | 0.00 | 0.00 | 0.00 | 61 | 995.6 |
| 20260505005304 | 18 | 213 | 11.3 | 24.1 | 0.00 | 0.00 | 0.00 | 61 | 995.6 |
| 20260505005203 | 18 | 213 | 11.3 | 24.1 | 0.00 | 0.00 | 0.00 | 61 | 995.6 |
| 20260505005104 | 18 | 212 | 11.3 | 24.1 | 0.00 | 0.00 | 0.00 | 60 | 995.7 |
| 20260505005004 | 18 | 213 | 11.3 | 24.1 | 0.00 | 0.00 | 0.00 | 60 | 995.7 |
| 20260505004904 | 19 | 213 | 11.3 | 24.1 | 0.00 | 0.00 | 0.00 | 60 | 995.8 |
| 20260505004804 | 19 | 212 | 11.3 | 24.1 | 0.00 | 0.00 | 0.00 | 60 | 995.7 |
| 20260505004704 | 19 | 216 | 11.3 | 32.2 | 0.00 | 0.00 | 0.00 | 60 | 995.7 |
| 20260505004625 | 19 | 218 | 11.3 | 32.2 | 0.00 | 0.00 | 0.00 | 59 | 995.6 |
| 20260505004525 | 19 | 215 | 11.3 | 32.2 | 0.00 | 0.00 | 0.00 | 58 | 995.6 |
| 20260505004425 | 20 | 213 | 11.3 | 32.2 | 0.00 | 0.00 | 0.00 | 58 | 995.7 |
| 20260505004304 | 20 | 209 | 11.3 | 32.2 | 0.00 | 0.00 | 0.00 | 57 | 995.6 |
| 20260505004204 | 20 | 210 | 11.3 | 32.2 | 0.00 | 0.00 | 0.00 | 56 | 995.6 |
| 20260505004104 | 20 | 212 | 11.3 | 32.2 | 0.00 | 0.00 | 0.00 | 55 | 995.7 |
| 20260505004004 | 20 | 214 | 11.3 | 32.2 | 0.00 | 0.00 | 0.00 | 54 | 995.7 |
| 20260505003925 | 20 | 215 | 11.3 | 32.2 | 0.00 | 0.00 | 0.00 | 53 | 995.6 |
| 20260505003804 | 20 | 213 | 11.3 | 32.2 | 0.00 | 0.00 | 0.00 | 52 | 995.5 |
| 20260505003704 | 20 | 206 | 9.7 | 30.6 | 0.00 | 0.00 | 0.00 | 50 | 995.5 |
| 20260505003604 | 20 | 205 | 9.7 | 29.0 | 0.00 | 0.00 | 0.00 | 48 | 995.5 |
| 20260505003504 | 20 | 203 | 9.7 | 30.6 | 0.00 | 0.00 | 0.00 | 48 | 995.6 |
| 20260505003425 | 20 | 202 | 9.7 | 30.6 | 0.00 | 0.00 | 0.00 | 47 | 995.6 |
| 20260505003325 | 20 | 201 | 9.7 | 30.6 | 0.00 | 0.00 | 0.00 | 46 | 995.5 |
| 20260505003204 | 20 | 204 | 9.7 | 30.6 | 0.00 | 0.00 | 0.00 | 46 | 995.5 |
| 20260505003104 | 20 | 202 | 9.7 | 30.6 | 0.00 | 0.00 | 0.00 | 45 | 995.4 |
| 20260505003004 | 20 | 200 | 9.7 | 30.6 | 0.00 | 0.00 | 0.00 | 45 | 995.4 |
| 20260505002904 | 20 | 200 | 9.7 | 30.6 | 0.00 | 0.00 | 0.00 | 45 | 995.4 |
| 20260505002804 | 21 | 203 | 9.7 | 30.6 | 0.00 | 0.00 | 0.00 | 45 | 995.5 |
| 20260505002704 | 21 | 206 | 9.7 | 30.6 | 0.00 | 0.00 | 0.00 | 44 | 995.5 |
| 20260505002604 | 21 | 205 | 9.7 | 30.6 | 0.00 | 0.00 | 0.00 | 44 | 995.3 |
| 20260505002504 | 21 | 212 | 9.7 | 29.0 | 0.00 | 0.00 | 0.00 | 43 | 995.5 |
| 20260505002404 | 21 | 213 | 9.7 | 25.7 | 0.00 | 0.00 | 0.00 | 43 | 995.5 |
| 20260505002304 | 21 | 215 | 9.7 | 25.7 | 0.00 | 0.00 | 0.00 | 43 | 995.4 |
| 20260505002204 | 21 | 212 | 8.0 | 25.7 | 0.00 | 0.00 | 0.00 | 42 | 995.4 |
| 20260505002104 | 21 | 216 | 8.0 | 25.7 | 0.00 | 0.00 | 0.00 | 42 | 995.3 |
| 20260505002004 | 21 | 218 | 8.0 | 25.7 | 0.00 | 0.00 | 0.00 | 42 | 995.3 |
| 20260505001904 | 21 | 214 | 8.0 | 25.7 | 0.00 | 0.00 | 0.00 | 42 | 995.3 |
| 20260505001825 | 21 | 213 | 8.0 | 25.7 | 0.00 | 0.00 | 0.00 | 42 | 995.3 |
| 20260505001704 | 21 | 213 | 6.4 | 25.7 | 0.00 | 0.00 | 0.00 | 41 | 995.2 |
| 20260505001604 | 21 | 213 | 6.4 | 25.7 | 0.00 | 0.00 | 0.00 | 41 | 995.2 |
| 20260505001525 | 21 | 213 | 6.4 | 24.1 | 0.00 | 0.00 | 0.00 | 41 | 995.2 |
| 20260505001404 | 21 | 213 | 4.8 | 17.7 | 0.00 | 0.00 | 0.00 | 41 | 995.2 |
| 20260505001304 | 21 | 208 | 4.8 | 17.7 | 0.00 | 0.00 | 0.00 | 41 | 995.1 |
| 20260505001204 | 21 | 210 | 4.8 | 17.7 | 0.00 | 0.00 | 0.00 | 41 | 995.1 |
| 20260505001104 | 21 | 212 | 4.8 | 17.7 | 0.00 | 0.00 | 0.00 | 41 | 995.1 |
| 20260505001004 | 21 | 212 | 4.8 | 17.7 | 0.00 | 0.00 | 0.00 | 41 | 995.0 |
| 20260505000904 | 21 | 215 | 4.8 | 17.7 | 0.00 | 0.00 | 0.00 | 41 | 995.0 |
| 20260505000804 | 21 | 219 | 3.2 | 12.9 | 0.00 | 0.00 | 0.00 | 41 | 995.1 |
| 20260505000725 | 21 | 217 | 3.2 | 12.9 | 0.00 | 0.00 | 0.00 | 41 | 995.1 |
| 20260505000604 | 21 | 212 | 4.8 | 16.1 | 0.00 | 0.00 | 0.00 | 41 | 995.1 |
| 20260505000504 | 21 | 215 | 4.8 | 16.1 | 0.00 | 0.00 | 0.00 | 41 | 995.0 |
| 20260505000405 | 22 | 213 | 4.8 | 16.1 | 0.00 | 0.00 | 0.00 | 41 | 995.1 |
| 20260505000325 | 22 | 216 | 4.8 | 16.1 | 0.00 | 0.00 | 0.00 | 41 | 995.1 |
| 20260505000204 | 22 | 218 | 4.8 | 16.1 | 0.00 | 0.00 | 0.00 | 41 | 995.0 |
| 20260505000104 | 22 | 209 | 4.8 | 16.1 | 0.00 | 0.00 | 0.00 | 42 | 995.0 |
| 20260505000004 | 22 | 205 | 6.4 | 16.1 | 0.00 | 0.00 | 0.00 | 41 | 995.1 |
| 20260504235904 | 22 | 205 | 6.4 | 16.1 | 0.00 | 0.00 | 0.00 | 41 | 995.1 |
| 20260504235825 | 22 | 205 | 6.4 | 16.1 | 0.00 | 0.00 | 0.00 | 41 | 995.1 |
| 20260504235704 | 22 | 201 | 6.4 | 16.1 | 0.00 | 0.00 | 0.00 | 41 | 995.1 |
| 20260504235604 | 22 | 204 | 4.8 | 14.5 | 0.00 | 0.00 | 0.00 | 41 | 995.1 |
| 20260504235504 | 22 | 201 | 4.8 | 14.5 | 0.00 | 0.00 | 0.00 | 41 | 995.1 |
| 20260504235404 | 22 | 194 | 4.8 | 14.5 | 0.00 | 0.00 | 0.00 | 41 | 995.1 |
| 20260504235304 | 22 | 191 | 4.8 | 14.5 | 0.00 | 0.00 | 0.00 | 41 | 995.1 |
| 20260504235204 | 22 | 189 | 4.8 | 14.5 | 0.00 | 0.00 | 0.00 | 40 | 995.2 |
| 20260504235107 | 22 | 194 | 3.2 | 14.5 | 0.00 | 0.00 | 0.00 | 40 | 995.2 |
| 20260504235004 | 22 | 193 | 3.2 | 14.5 | 0.00 | 0.00 | 0.00 | 41 | 995.2 |
| 20260504234904 | 22 | 189 | 4.8 | 14.5 | 0.00 | 0.00 | 0.00 | 40 | 995.2 |
| 20260504234804 | 22 | 188 | 4.8 | 14.5 | 0.00 | 0.00 | 0.00 | 40 | 995.2 |
| 20260504234704 | 22 | 187 | 4.8 | 12.9 | 0.00 | 0.00 | 0.00 | 41 | 995.2 |
| 20260504234604 | 22 | 182 | 4.8 | 12.9 | 0.00 | 0.00 | 0.00 | 40 | 995.3 |
| 20260504234504 | 22 | 181 | 4.8 | 12.9 | 0.00 | 0.00 | 0.00 | 40 | 995.3 |
| 20260504234425 | 22 | 185 | 4.8 | 12.9 | 0.00 | 0.00 | 0.00 | 41 | 995.2 |
| 20260504234325 | 22 | 184 | 4.8 | 12.9 | 0.00 | 0.00 | 0.00 | 41 | 995.2 |
| 20260504234204 | 22 | 187 | 4.8 | 12.9 | 0.00 | 0.00 | 0.00 | 40 | 995.3 |
| 20260504234104 | 22 | 185 | 4.8 | 12.9 | 0.00 | 0.00 | 0.00 | 40 | 995.2 |
| 20260504234025 | 22 | 189 | 4.8 | 12.9 | 0.00 | 0.00 | 0.00 | 40 | 995.2 |
| 20260504233904 | 23 | 196 | 4.8 | 12.9 | 0.00 | 0.00 | 0.00 | 40 | 995.3 |
| 20260504233804 | 23 | 199 | 4.8 | 12.9 | 0.00 | 0.00 | 0.00 | 39 | 995.3 |
| 20260504233703 | 23 | 199 | 4.8 | 12.9 | 0.00 | 0.00 | 0.00 | 39 | 995.3 |
| 20260504233624 | 23 | 205 | 4.8 | 12.9 | 0.00 | 0.00 | 0.00 | 39 | 995.3 |
| 20260504233504 | 23 | 207 | 4.8 | 12.9 | 0.00 | 0.00 | 0.00 | 39 | 995.3 |
| 20260504233425 | 23 | 207 | 4.8 | 12.9 | 0.00 | 0.00 | 0.00 | 39 | 995.3 |
| 20260504233304 | 23 | 209 | 4.8 | 14.5 | 0.00 | 0.00 | 0.00 | 40 | 995.3 |
| 20260504233225 | 23 | 207 | 4.8 | 14.5 | 0.00 | 0.00 | 0.00 | 39 | 995.3 |
| 20260504233104 | 23 | 208 | 4.8 | 14.5 | 0.00 | 0.00 | 0.00 | 39 | 995.4 |
| 20260504233004 | 23 | 203 | 4.8 | 16.1 | 0.00 | 0.00 | 0.00 | 39 | 995.4 |
| 20260504232904 | 23 | 202 | 4.8 | 16.1 | 0.00 | 0.00 | 0.00 | 39 | 995.4 |
| 20260504232804 | 23 | 205 | 4.8 | 16.1 | 0.00 | 0.00 | 0.00 | 39 | 995.4 |
| 20260504232703 | 23 | 204 | 4.8 | 16.1 | 0.00 | 0.00 | 0.00 | 39 | 995.4 |
| 20260504232604 | 23 | 197 | 4.8 | 16.1 | 0.00 | 0.00 | 0.00 | 39 | 995.5 |
| 20260504232504 | 23 | 195 | 4.8 | 16.1 | 0.00 | 0.00 | 0.00 | 38 | 995.4 |
| 20260504232404 | 23 | 195 | 4.8 | 16.1 | 0.00 | 0.00 | 0.00 | 38 | 995.4 |
| 20260504232304 | 23 | 196 | 4.8 | 16.1 | 0.00 | 0.00 | 0.00 | 38 | 995.5 |
| 20260504232225 | 23 | 195 | 4.8 | 16.1 | 0.00 | 0.00 | 0.00 | 38 | 995.5 |
| 20260504232103 | 23 | 191 | 4.8 | 16.1 | 0.00 | 0.00 | 0.00 | 38 | 995.4 |
| 20260504232004 | 23 | 193 | 4.8 | 14.5 | 0.00 | 0.00 | 0.00 | 38 | 995.4 |
| 20260504231904 | 23 | 194 | 4.8 | 14.5 | 0.00 | 0.00 | 0.00 | 38 | 995.4 |
| 20260504231825 | 23 | 194 | 4.8 | 14.5 | 0.00 | 0.00 | 0.00 | 38 | 995.4 |
| 20260504231725 | 23 | 194 | 4.8 | 14.5 | 0.00 | 0.00 | 0.00 | 38 | 995.4 |
| 20260504231603 | 23 | 198 | 4.8 | 14.5 | 0.00 | 0.00 | 0.00 | 38 | 995.5 |
| 20260504231504 | 23 | 202 | 4.8 | 12.9 | 0.00 | 0.00 | 0.00 | 38 | 995.5 |
| 20260504231404 | 23 | 205 | 4.8 | 19.3 | 0.00 | 0.00 | 0.00 | 38 | 995.5 |
| 20260504231304 | 23 | 206 | 4.8 | 19.3 | 0.00 | 0.00 | 0.00 | 38 | 995.5 |
| 20260504231204 | 23 | 202 | 4.8 | 19.3 | 0.00 | 0.00 | 0.00 | 38 | 995.6 |
| 20260504231104 | 23 | 204 | 4.8 | 19.3 | 0.00 | 0.00 | 0.00 | 38 | 995.6 |
| 20260504231004 | 23 | 210 | 4.8 | 19.3 | 0.00 | 0.00 | 0.00 | 38 | 995.7 |
| 20260504230903 | 23 | 210 | 4.8 | 19.3 | 0.00 | 0.00 | 0.00 | 39 | 995.7 |
| 20260504230804 | 23 | 207 | 4.8 | 19.3 | 0.00 | 0.00 | 0.00 | 39 | 995.7 |
| 20260504230704 | 23 | 211 | 4.8 | 19.3 | 0.00 | 0.00 | 0.00 | 39 | 995.8 |
| 20260504230604 | 23 | 216 | 4.8 | 19.3 | 0.00 | 0.00 | 0.00 | 39 | 995.8 |
| 20260504230503 | 23 | 218 | 6.4 | 19.3 | 0.00 | 0.00 | 0.00 | 39 | 995.8 |
| 20260504230403 | 23 | 222 | 6.4 | 17.7 | 0.00 | 0.00 | 0.00 | 39 | 995.9 |
| 20260504230303 | 23 | 222 | 6.4 | 17.7 | 0.00 | 0.00 | 0.00 | 39 | 995.9 |
| 20260504230204 | 23 | 225 | 6.4 | 25.7 | 0.00 | 0.00 | 0.00 | 39 | 995.9 |
| 20260504230104 | 23 | 225 | 6.4 | 25.7 | 0.00 | 0.00 | 0.00 | 38 | 995.9 |
| 20260504230024 | 23 | 227 | 6.4 | 25.7 | 0.00 | 0.00 | 0.00 | 38 | 996.0 |
| 20260504225903 | 23 | 223 | 6.4 | 25.7 | 0.00 | 0.00 | 0.00 | 39 | 996.1 |
| 20260504225804 | 23 | 222 | 6.4 | 25.7 | 0.00 | 0.00 | 0.00 | 38 | 996.1 |
| 20260504225704 | 23 | 219 | 6.4 | 25.7 | 0.00 | 0.00 | 0.00 | 39 | 996.1 |
| 20260504225604 | 23 | 216 | 8.0 | 25.7 | 0.00 | 0.00 | 0.00 | 39 | 996.1 |
| 20260504225504 | 23 | 215 | 8.0 | 25.7 | 0.00 | 0.00 | 0.00 | 38 | 996.2 |
| 20260504225403 | 23 | 211 | 8.0 | 25.7 | 0.00 | 0.00 | 0.00 | 39 | 996.2 |
| 20260504225304 | 23 | 214 | 8.0 | 25.7 | 0.00 | 0.00 | 0.00 | 39 | 996.2 |
| 20260504225225 | 23 | 211 | 8.0 | 24.1 | 0.00 | 0.00 | 0.00 | 39 | 996.3 |
| 20260504225104 | 23 | 213 | 8.0 | 19.3 | 0.00 | 0.00 | 0.00 | 39 | 996.3 |
| 20260504225004 | 23 | 210 | 8.0 | 19.3 | 0.00 | 0.00 | 0.00 | 39 | 996.3 |
| 20260504224903 | 23 | 211 | 8.0 | 19.3 | 0.00 | 0.00 | 0.00 | 39 | 996.3 |
| 20260504224803 | 23 | 211 | 8.0 | 19.3 | 0.00 | 0.00 | 0.00 | 39 | 996.3 |
| 20260504224725 | 23 | 212 | 8.0 | 19.3 | 0.00 | 0.00 | 0.00 | 39 | 996.4 |
| 20260504224604 | 23 | 212 | 6.4 | 19.3 | 0.00 | 0.00 | 0.00 | 39 | 996.4 |
| 20260504224504 | 23 | 212 | 8.0 | 19.3 | 0.00 | 0.00 | 0.00 | 39 | 996.4 |
| 20260504224404 | 23 | 212 | 8.0 | 19.3 | 0.00 | 0.00 | 0.00 | 40 | 996.4 |
| 20260504224304 | 23 | 207 | 6.4 | 16.1 | 0.00 | 0.00 | 0.00 | 39 | 996.4 |
| 20260504224204 | 23 | 209 | 8.0 | 16.1 | 0.00 | 0.00 | 0.00 | 39 | 996.5 |
| 20260504224125 | 23 | 208 | 8.0 | 16.1 | 0.00 | 0.00 | 0.00 | 39 | 996.5 |
| 20260504224004 | 23 | 210 | 6.4 | 16.1 | 0.00 | 0.00 | 0.00 | 40 | 996.6 |
| 20260504223904 | 23 | 209 | 6.4 | 20.9 | 0.00 | 0.00 | 0.00 | 40 | 996.5 |
| 20260504223803 | 23 | 213 | 6.4 | 20.9 | 0.00 | 0.00 | 0.00 | 40 | 996.5 |
| 20260504223704 | 23 | 214 | 8.0 | 20.9 | 0.00 | 0.00 | 0.00 | 40 | 996.6 |
| 20260504223604 | 23 | 209 | 8.0 | 20.9 | 0.00 | 0.00 | 0.00 | 40 | 996.6 |
| 20260504223504 | 23 | 210 | 8.0 | 20.9 | 0.00 | 0.00 | 0.00 | 40 | 996.6 |
| 20260504223425 | 23 | 211 | 8.0 | 20.9 | 0.00 | 0.00 | 0.00 | 39 | 996.6 |
| 20260504223304 | 22 | 216 | 8.0 | 20.9 | 0.00 | 0.00 | 0.00 | 40 | 996.6 |
| 20260504223203 | 22 | 215 | 8.0 | 20.9 | 0.00 | 0.00 | 0.00 | 40 | 996.6 |
| 20260504223104 | 22 | 217 | 8.0 | 20.9 | 0.00 | 0.00 | 0.00 | 41 | 996.7 |
| 20260504223004 | 22 | 216 | 8.0 | 20.9 | 0.00 | 0.00 | 0.00 | 41 | 996.7 |
| 20260504222925 | 22 | 219 | 8.0 | 19.3 | 0.00 | 0.00 | 0.00 | 41 | 996.8 |
| 20260504222803 | 22 | 219 | 8.0 | 19.3 | 0.00 | 0.00 | 0.00 | 41 | 996.7 |
| 20260504222704 | 22 | 214 | 8.0 | 19.3 | 0.00 | 0.00 | 0.00 | 41 | 996.7 |
| 20260504222604 | 22 | 214 | 8.0 | 19.3 | 0.00 | 0.00 | 0.00 | 41 | 996.7 |
| 20260504222504 | 22 | 208 | 8.0 | 19.3 | 0.00 | 0.00 | 0.00 | 42 | 996.7 |
| 20260504222404 | 22 | 208 | 9.7 | 19.3 | 0.00 | 0.00 | 0.00 | 42 | 996.8 |
| 20260504222305 | 22 | 206 | 9.7 | 17.7 | 0.00 | 0.00 | 0.00 | 42 | 996.8 |
| 20260504222204 | 22 | 205 | 9.7 | 24.1 | 0.00 | 0.00 | 0.00 | 42 | 996.8 |
| 20260504222104 | 22 | 201 | 9.7 | 24.1 | 0.00 | 0.00 | 0.00 | 42 | 996.8 |
| 20260504222003 | 22 | 203 | 9.7 | 24.1 | 0.00 | 0.00 | 0.00 | 42 | 996.8 |
| 20260504221903 | 22 | 202 | 11.3 | 24.1 | 0.00 | 0.00 | 0.00 | 42 | 996.8 |
| 20260504221804 | 22 | 203 | 9.7 | 24.1 | 0.00 | 0.00 | 0.00 | 41 | 996.9 |
| 20260504221704 | 22 | 208 | 9.7 | 24.1 | 0.00 | 0.00 | 0.00 | 42 | 996.9 |
| 20260504221625 | 22 | 211 | 9.7 | 24.1 | 0.00 | 0.00 | 0.00 | 41 | 996.9 |
| 20260504221503 | 22 | 218 | 9.7 | 24.1 | 0.00 | 0.00 | 0.00 | 42 | 996.9 |
| 20260504221403 | 22 | 218 | 9.7 | 24.1 | 0.00 | 0.00 | 0.00 | 41 | 996.9 |
| 20260504221325 | 22 | 218 | 9.7 | 24.1 | 0.00 | 0.00 | 0.00 | 41 | 996.9 |
| 20260504221204 | 22 | 224 | 8.0 | 16.1 | 0.00 | 0.00 | 0.00 | 41 | 996.9 |
| 20260504221104 | 22 | 223 | 8.0 | 17.7 | 0.00 | 0.00 | 0.00 | 41 | 996.9 |
| 20260504221025 | 22 | 226 | 8.0 | 17.7 | 0.00 | 0.00 | 0.00 | 42 | 996.9 |
| 20260504220904 | 22 | 224 | 8.0 | 20.9 | 0.00 | 0.00 | 0.00 | 42 | 997.0 |
| 20260504220825 | 22 | 225 | 8.0 | 20.9 | 0.00 | 0.00 | 0.00 | 42 | 996.9 |
| 20260504220725 | 22 | 223 | 8.0 | 20.9 | 0.00 | 0.00 | 0.00 | 43 | 996.9 |
| 20260504220625 | 22 | 225 | 8.0 | 20.9 | 0.00 | 0.00 | 0.00 | 43 | 997.0 |
| 20260504220503 | 22 | 227 | 8.0 | 20.9 | 0.00 | 0.00 | 0.00 | 44 | 997.0 |
| 20260504220403 | 22 | 226 | 8.0 | 22.5 | 0.00 | 0.00 | 0.00 | 44 | 997.0 |
| 20260504220304 | 22 | 228 | 8.0 | 22.5 | 0.00 | 0.00 | 0.00 | 44 | 997.1 |
| 20260504220204 | 22 | 228 | 9.7 | 22.5 | 0.00 | 0.00 | 0.00 | 44 | 997.1 |
| 20260504220103 | 22 | 230 | 9.7 | 22.5 | 0.00 | 0.00 | 0.00 | 45 | 997.0 |
| 20260504220004 | 22 | 230 | 9.7 | 22.5 | 0.00 | 0.00 | 0.00 | 45 | 997.1 |
| 20260504215925 | 22 | 230 | 9.7 | 22.5 | 0.00 | 0.00 | 0.00 | 45 | 997.1 |
| 20260504215804 | 22 | 227 | 9.7 | 24.1 | 0.00 | 0.00 | 0.00 | 45 | 997.0 |
| 20260504215704 | 22 | 221 | 9.7 | 24.1 | 0.00 | 0.00 | 0.00 | 45 | 997.0 |
| 20260504215603 | 22 | 212 | 9.7 | 24.1 | 0.00 | 0.00 | 0.00 | 45 | 997.0 |
| 20260504215504 | 22 | 206 | 9.7 | 24.1 | 0.00 | 0.00 | 0.00 | 46 | 997.0 |
| 20260504215424 | 22 | 204 | 9.7 | 24.1 | 0.00 | 0.00 | 0.00 | 45 | 997.0 |
| 20260504215304 | 22 | 200 | 9.7 | 24.1 | 0.00 | 0.00 | 0.00 | 46 | 997.1 |
| 20260504215204 | 22 | 198 | 9.7 | 24.1 | 0.00 | 0.00 | 0.00 | 46 | 997.1 |
| 20260504215125 | 22 | 198 | 9.7 | 24.1 | 0.00 | 0.00 | 0.00 | 46 | 997.1 |
| 20260504215004 | 22 | 198 | 9.7 | 24.1 | 0.00 | 0.00 | 0.00 | 45 | 997.0 |
| 20260504214903 | 22 | 195 | 8.0 | 24.1 | 0.00 | 0.00 | 0.00 | 46 | 997.0 |
| 20260504214803 | 22 | 196 | 9.7 | 22.5 | 0.00 | 0.00 | 0.00 | 46 | 997.1 |
| 20260504214704 | 22 | 199 | 9.7 | 22.5 | 0.00 | 0.00 | 0.00 | 46 | 997.1 |
| 20260504214604 | 22 | 209 | 9.7 | 22.5 | 0.00 | 0.00 | 0.00 | 46 | 997.1 |
| 20260504214504 | 22 | 209 | 9.7 | 22.5 | 0.00 | 0.00 | 0.00 | 46 | 997.2 |
| 20260504214403 | 22 | 211 | 9.7 | 22.5 | 0.00 | 0.00 | 0.00 | 47 | 997.2 |
| 20260504214303 | 22 | 210 | 9.7 | 22.5 | 0.00 | 0.00 | 0.00 | 46 | 997.2 |
| 20260504214204 | 22 | 210 | 9.7 | 22.5 | 0.00 | 0.00 | 0.00 | 46 | 997.2 |
| 20260504214104 | 22 | 211 | 9.7 | 22.5 | 0.00 | 0.00 | 0.00 | 46 | 997.2 |
| 20260504214005 | 22 | 207 | 9.7 | 20.9 | 0.00 | 0.00 | 0.00 | 46 | 997.2 |
| 20260504213925 | 22 | 207 | 9.7 | 20.9 | 0.00 | 0.00 | 0.00 | 46 | 997.2 |
| 20260504213803 | 22 | 212 | 9.7 | 20.9 | 0.00 | 0.00 | 0.00 | 46 | 997.2 |
| 20260504213703 | 22 | 213 | 9.7 | 20.9 | 0.00 | 0.00 | 0.00 | 46 | 997.2 |
| 20260504213625 | 22 | 214 | 9.7 | 24.1 | 0.00 | 0.00 | 0.00 | 46 | 997.2 |
| 20260504213504 | 22 | 215 | 8.0 | 24.1 | 0.00 | 0.00 | 0.00 | 46 | 997.3 |
| 20260504213424 | 22 | 215 | 8.0 | 24.1 | 0.00 | 0.00 | 0.00 | 46 | 997.3 |
| 20260504213303 | 22 | 217 | 8.0 | 24.1 | 0.00 | 0.00 | 0.00 | 47 | 997.3 |
| 20260504213203 | 22 | 219 | 8.0 | 24.1 | 0.00 | 0.00 | 0.00 | 47 | 997.3 |
| 20260504213103 | 22 | 216 | 9.7 | 24.1 | 0.00 | 0.00 | 0.00 | 47 | 997.3 |
| 20260504213004 | 22 | 218 | 9.7 | 24.1 | 0.00 | 0.00 | 0.00 | 47 | 997.3 |
| 20260504212904 | 22 | 216 | 9.7 | 24.1 | 0.00 | 0.00 | 0.00 | 48 | 997.3 |
| 20260504212803 | 22 | 213 | 9.7 | 24.1 | 0.00 | 0.00 | 0.00 | 47 | 997.3 |
| 20260504212703 | 22 | 211 | 8.0 | 24.1 | 0.00 | 0.00 | 0.00 | 47 | 997.3 |
| 20260504212604 | 22 | 204 | 8.0 | 24.1 | 0.00 | 0.00 | 0.00 | 48 | 997.4 |
| 20260504212504 | 22 | 206 | 9.7 | 24.1 | 0.00 | 0.00 | 0.00 | 48 | 997.4 |
| 20260504212425 | 22 | 209 | 9.7 | 24.1 | 0.00 | 0.00 | 0.00 | 48 | 997.3 |
| 20260504212304 | 22 | 211 | 9.7 | 24.1 | 0.00 | 0.00 | 0.00 | 48 | 997.3 |
| 20260504212203 | 22 | 210 | 9.7 | 24.1 | 0.00 | 0.00 | 0.00 | 48 | 997.5 |
| 20260504212104 | 22 | 212 | 9.7 | 24.1 | 0.00 | 0.00 | 0.00 | 49 | 997.4 |
| 20260504212003 | 22 | 213 | 9.7 | 24.1 | 0.00 | 0.00 | 0.00 | 49 | 997.4 |
| 20260504211903 | 22 | 217 | 9.7 | 24.1 | 0.00 | 0.00 | 0.00 | 49 | 997.4 |
| 20260504211803 | 21 | 220 | 9.7 | 24.1 | 0.00 | 0.00 | 0.00 | 48 | 997.4 |
| 20260504211724 | 21 | 221 | 9.7 | 24.1 | 0.00 | 0.00 | 0.00 | 49 | 997.4 |
| 20260504211603 | 21 | 220 | 11.3 | 24.1 | 0.00 | 0.00 | 0.00 | 49 | 997.5 |
| 20260504211504 | 21 | 217 | 11.3 | 22.5 | 0.00 | 0.00 | 0.00 | 49 | 997.5 |
| 20260504211403 | 21 | 217 | 11.3 | 22.5 | 0.00 | 0.00 | 0.00 | 50 | 997.5 |
| 20260504211303 | 21 | 215 | 11.3 | 22.5 | 0.00 | 0.00 | 0.00 | 50 | 997.5 |
| 20260504211203 | 21 | 216 | 11.3 | 27.4 | 0.00 | 0.00 | 0.00 | 49 | 997.5 |
| 20260504211104 | 21 | 217 | 11.3 | 27.4 | 0.00 | 0.00 | 0.00 | 49 | 997.6 |
| 20260504211025 | 21 | 216 | 11.3 | 27.4 | 0.00 | 0.00 | 0.00 | 49 | 997.6 |
| 20260504210924 | 21 | 214 | 11.3 | 27.4 | 0.00 | 0.00 | 0.00 | 50 | 997.7 |
| 20260504210824 | 21 | 209 | 11.3 | 27.4 | 0.00 | 0.00 | 0.00 | 49 | 997.7 |
| 20260504210703 | 21 | 207 | 11.3 | 27.4 | 0.00 | 0.00 | 0.00 | 49 | 997.6 |
| 20260504210604 | 21 | 211 | 11.3 | 27.4 | 0.00 | 0.00 | 0.00 | 50 | 997.6 |
| 20260504210504 | 21 | 212 | 11.3 | 27.4 | 0.00 | 0.00 | 0.00 | 50 | 997.6 |
| 20260504210403 | 21 | 209 | 11.3 | 27.4 | 0.00 | 0.00 | 0.00 | 50 | 997.6 |
| 20260504210324 | 21 | 211 | 11.3 | 27.4 | 0.00 | 0.00 | 0.00 | 49 | 997.6 |
| 20260504210204 | 21 | 206 | 11.3 | 24.1 | 0.00 | 0.00 | 0.00 | 50 | 997.7 |
| 20260504210124 | 21 | 206 | 11.3 | 24.1 | 0.00 | 0.00 | 0.00 | 50 | 997.7 |
| 20260504210004 | 21 | 211 | 11.3 | 24.1 | 0.00 | 0.00 | 0.00 | 50 | 997.7 |
| 20260504205903 | 22 | 213 | 11.3 | 24.1 | 0.00 | 0.00 | 0.00 | 50 | 997.7 |
| 20260504205803 | 22 | 219 | 9.7 | 22.5 | 0.00 | 0.00 | 0.00 | 51 | 997.7 |
| 20260504205703 | 21 | 219 | 11.3 | 22.5 | 0.00 | 0.00 | 0.00 | 52 | 997.7 |
| 20260504205603 | 21 | 218 | 11.3 | 25.7 | 0.00 | 0.00 | 0.00 | 52 | 997.8 |
| 20260504205504 | 21 | 216 | 11.3 | 25.7 | 0.00 | 0.00 | 0.00 | 51 | 997.8 |
| 20260504205404 | 21 | 214 | 11.3 | 25.7 | 0.00 | 0.00 | 0.00 | 52 | 997.8 |
| 20260504205304 | 21 | 212 | 11.3 | 25.7 | 0.00 | 0.00 | 0.00 | 52 | 997.9 |
| 20260504205203 | 21 | 215 | 11.3 | 25.7 | 0.00 | 0.00 | 0.00 | 52 | 997.9 |
| 20260504205103 | 21 | 215 | 11.3 | 25.7 | 0.00 | 0.00 | 0.00 | 51 | 997.9 |
| 20260504205003 | 21 | 214 | 11.3 | 25.7 | 0.00 | 0.00 | 0.00 | 52 | 997.9 |
| 20260504204903 | 21 | 214 | 11.3 | 25.7 | 0.00 | 0.00 | 0.00 | 52 | 997.9 |
| 20260504204804 | 21 | 214 | 11.3 | 25.7 | 0.00 | 0.00 | 0.00 | 52 | 997.9 |
| 20260504204703 | 21 | 218 | 11.3 | 25.7 | 0.00 | 0.00 | 0.00 | 52 | 997.9 |
| 20260504204624 | 21 | 219 | 11.3 | 24.1 | 0.00 | 0.00 | 0.00 | 52 | 998.0 |
| 20260504204503 | 21 | 219 | 9.7 | 29.0 | 0.00 | 0.00 | 0.00 | 52 | 997.9 |
| 20260504204404 | 21 | 226 | 9.7 | 29.0 | 0.00 | 0.00 | 0.00 | 53 | 997.9 |
| 20260504204303 | 21 | 226 | 11.3 | 29.0 | 0.00 | 0.00 | 0.00 | 53 | 997.9 |
| 20260504204204 | 21 | 223 | 11.3 | 29.0 | 0.00 | 0.00 | 0.00 | 53 | 997.9 |
| 20260504204104 | 21 | 225 | 11.3 | 29.0 | 0.00 | 0.00 | 0.00 | 53 | 997.9 |
| 20260504204024 | 21 | 224 | 11.3 | 29.0 | 0.00 | 0.00 | 0.00 | 53 | 998.0 |
| 20260504203903 | 21 | 223 | 11.3 | 29.0 | 0.00 | 0.00 | 0.00 | 53 | 998.0 |
| 20260504203804 | 21 | 219 | 11.3 | 29.0 | 0.00 | 0.00 | 0.00 | 53 | 998.0 |
| 20260504203703 | 21 | 217 | 11.3 | 29.0 | 0.00 | 0.00 | 0.00 | 53 | 998.0 |
| 20260504203624 | 21 | 216 | 11.3 | 29.0 | 0.00 | 0.00 | 0.00 | 53 | 998.0 |
| 20260504203503 | 21 | 216 | 12.9 | 27.4 | 0.00 | 0.00 | 0.00 | 53 | 998.0 |
| 20260504203403 | 21 | 211 | 12.9 | 29.0 | 0.00 | 0.00 | 0.00 | 53 | 998.0 |
| 20260504203303 | 21 | 208 | 11.3 | 29.0 | 0.00 | 0.00 | 0.00 | 53 | 998.0 |
| 20260504203203 | 21 | 210 | 11.3 | 29.0 | 0.00 | 0.00 | 0.00 | 53 | 998.0 |
| 20260504203103 | 21 | 206 | 11.3 | 29.0 | 0.00 | 0.00 | 0.00 | 53 | 998.0 |
| 20260504203004 | 21 | 205 | 11.3 | 29.0 | 0.00 | 0.00 | 0.00 | 53 | 998.1 |
| 20260504202924 | 21 | 206 | 11.3 | 29.0 | 0.00 | 0.00 | 0.00 | 53 | 998.1 |
| 20260504202824 | 21 | 206 | 11.3 | 29.0 | 0.00 | 0.00 | 0.00 | 54 | 998.1 |
| 20260504202703 | 21 | 206 | 11.3 | 29.0 | 0.00 | 0.00 | 0.00 | 54 | 998.2 |
| 20260504202603 | 21 | 205 | 11.3 | 29.0 | 0.00 | 0.00 | 0.00 | 53 | 998.2 |
| 20260504202504 | 21 | 211 | 11.3 | 29.0 | 0.00 | 0.00 | 0.00 | 54 | 998.2 |
| 20260504202424 | 20 | 214 | 11.3 | 29.0 | 0.00 | 0.00 | 0.00 | 54 | 998.2 |
| 20260504202304 | 20 | 216 | 11.3 | 24.1 | 0.00 | 0.00 | 0.00 | 54 | 998.2 |
| 20260504202204 | 20 | 221 | 11.3 | 24.1 | 0.00 | 0.00 | 0.00 | 54 | 998.2 |
| 20260504202103 | 20 | 224 | 11.3 | 24.1 | 0.00 | 0.00 | 0.00 | 54 | 998.2 |
| 20260504202003 | 20 | 223 | 11.3 | 24.1 | 0.00 | 0.00 | 0.00 | 54 | 998.3 |
| 20260504201903 | 20 | 226 | 11.3 | 24.1 | 0.00 | 0.00 | 0.00 | 55 | 998.3 |
| 20260504201803 | 20 | 227 | 11.3 | 24.1 | 0.00 | 0.00 | 0.00 | 54 | 998.3 |
| 20260504201703 | 20 | 227 | 11.3 | 24.1 | 0.00 | 0.00 | 0.00 | 55 | 998.4 |
| 20260504201603 | 20 | 227 | 11.3 | 24.1 | 0.00 | 0.00 | 0.00 | 55 | 998.4 |
| 20260504201503 | 20 | 226 | 11.3 | 24.1 | 0.00 | 0.00 | 0.00 | 55 | 998.4 |
| 20260504201424 | 20 | 228 | 11.3 | 29.0 | 0.00 | 0.00 | 0.00 | 54 | 998.4 |
| 20260504201324 | 20 | 224 | 11.3 | 29.0 | 0.00 | 0.00 | 0.00 | 54 | 998.3 |
| 20260504201203 | 20 | 220 | 9.7 | 29.0 | 0.00 | 0.00 | 0.00 | 55 | 998.3 |
| 20260504201104 | 20 | 221 | 11.3 | 29.0 | 0.00 | 0.00 | 0.00 | 55 | 998.3 |
| 20260504201004 | 20 | 220 | 11.3 | 29.0 | 0.00 | 0.00 | 0.00 | 55 | 998.4 |
| 20260504200924 | 20 | 222 | 11.3 | 29.0 | 0.00 | 0.00 | 0.00 | 55 | 998.4 |
| 20260504200803 | 20 | 221 | 11.3 | 29.0 | 0.00 | 0.00 | 0.00 | 55 | 998.3 |
| 20260504200703 | 20 | 222 | 11.3 | 29.0 | 0.00 | 0.00 | 0.00 | 55 | 998.3 |
| 20260504200603 | 20 | 223 | 11.3 | 29.0 | 0.00 | 0.00 | 0.00 | 55 | 998.3 |
| 20260504200503 | 20 | 224 | 11.3 | 29.0 | 0.00 | 0.00 | 0.00 | 55 | 998.3 |
| 20260504200403 | 20 | 225 | 9.7 | 27.4 | 0.00 | 0.00 | 0.00 | 54 | 998.4 |
| 20260504200303 | 20 | 230 | 11.3 | 25.7 | 0.00 | 0.00 | 0.00 | 55 | 998.4 |
| 20260504200203 | 20 | 233 | 11.3 | 25.7 | 0.00 | 0.00 | 0.00 | 55 | 998.3 |
| 20260504200125 | 20 | 229 | 11.3 | 25.7 | 0.00 | 0.00 | 0.00 | 55 | 998.3 |
| 20260504200003 | 20 | 232 | 12.9 | 32.2 | 0.00 | 0.00 | 0.00 | 55 | 998.4 |
| 20260504195903 | 20 | 233 | 12.9 | 32.2 | 0.00 | 0.00 | 0.00 | 55 | 998.5 |
| 20260504195803 | 20 | 233 | 12.9 | 33.8 | 0.00 | 0.00 | 0.00 | 55 | 998.5 |
| 20260504195704 | 20 | 231 | 12.9 | 33.8 | 0.00 | 0.00 | 0.00 | 55 | 998.5 |
| 20260504195604 | 20 | 230 | 12.9 | 33.8 | 0.00 | 0.00 | 0.00 | 55 | 998.4 |
| 20260504195503 | 20 | 227 | 12.9 | 33.8 | 0.00 | 0.00 | 0.00 | 54 | 998.4 |
| 20260504195403 | 20 | 224 | 12.9 | 33.8 | 0.00 | 0.00 | 0.00 | 54 | 998.6 |
| 20260504195304 | 20 | 222 | 12.9 | 33.8 | 0.00 | 0.00 | 0.00 | 54 | 998.6 |
| 20260504195224 | 20 | 220 | 12.9 | 33.8 | 0.00 | 0.00 | 0.00 | 54 | 998.5 |
| 20260504195124 | 20 | 221 | 12.9 | 33.8 | 0.00 | 0.00 | 0.00 | 54 | 998.5 |
| 20260504195003 | 20 | 217 | 12.9 | 33.8 | 0.00 | 0.00 | 0.00 | 54 | 998.7 |
| 20260504194903 | 20 | 215 | 12.9 | 33.8 | 0.00 | 0.00 | 0.00 | 54 | 998.7 |
| 20260504194803 | 20 | 216 | 12.9 | 32.2 | 0.00 | 0.00 | 0.00 | 54 | 998.7 |
| 20260504194703 | 20 | 216 | 12.9 | 33.8 | 0.00 | 0.00 | 0.00 | 54 | 998.7 |
| 20260504194624 | 20 | 216 | 12.9 | 33.8 | 0.00 | 0.00 | 0.00 | 54 | 998.7 |
| 20260504194507 | 20 | 218 | 12.9 | 33.8 | 0.00 | 0.00 | 0.00 | 54 | 998.7 |
| 20260504194428 | 20 | 218 | 12.9 | 33.8 | 0.00 | 0.00 | 0.00 | 54 | 998.7 |
| 20260504194307 | 20 | 221 | 11.3 | 33.8 | 0.00 | 0.00 | 0.00 | 53 | 998.6 |
| 20260504194207 | 20 | 218 | 11.3 | 33.8 | 0.00 | 0.00 | 0.00 | 53 | 998.6 |
| 20260504194106 | 20 | 220 | 11.3 | 33.8 | 0.00 | 0.00 | 0.00 | 53 | 998.7 |
| 20260504194006 | 20 | 225 | 11.3 | 33.8 | 0.00 | 0.00 | 0.00 | 53 | 998.7 |
| 20260504193906 | 20 | 223 | 11.3 | 33.8 | 0.00 | 0.00 | 0.00 | 53 | 998.9 |
| 20260504193807 | 20 | 225 | 11.3 | 33.8 | 0.00 | 0.00 | 0.00 | 53 | 998.7 |
| 20260504193706 | 20 | 225 | 11.3 | 30.6 | 0.00 | 0.00 | 0.00 | 53 | 998.7 |
| 20260504193606 | 20 | 224 | 11.3 | 30.6 | 0.00 | 0.00 | 0.00 | 53 | 998.7 |
| 20260504193507 | 20 | 221 | 11.3 | 30.6 | 0.00 | 0.00 | 0.00 | 53 | 998.7 |
| 20260504193427 | 20 | 221 | 11.3 | 30.6 | 0.00 | 0.00 | 0.00 | 54 | 998.7 |
| 20260504193307 | 20 | 218 | 11.3 | 30.6 | 0.00 | 0.00 | 0.00 | 54 | 998.7 |
| 20260504193206 | 20 | 223 | 11.3 | 30.6 | 0.00 | 0.00 | 0.00 | 54 | 998.7 |
| 20260504193106 | 20 | 222 | 11.3 | 30.6 | 0.00 | 0.00 | 0.00 | 53 | 998.8 |
| 20260504193028 | 20 | 220 | 11.3 | 30.6 | 0.00 | 0.00 | 0.00 | 53 | 998.8 |
| 20260504192928 | 20 | 218 | 11.3 | 29.0 | 0.00 | 0.00 | 0.00 | 53 | 998.7 |
| 20260504192828 | 20 | 215 | 11.3 | 24.1 | 0.00 | 0.00 | 0.00 | 53 | 998.6 |
| 20260504192706 | 20 | 218 | 11.3 | 24.1 | 0.00 | 0.00 | 0.00 | 53 | 998.6 |
| 20260504192606 | 20 | 220 | 11.3 | 24.1 | 0.00 | 0.00 | 0.00 | 53 | 998.7 |
| 20260504192506 | 20 | 223 | 11.3 | 24.1 | 0.00 | 0.00 | 0.00 | 53 | 998.7 |
| 20260504192406 | 20 | 224 | 11.3 | 24.1 | 0.00 | 0.00 | 0.00 | 54 | 998.7 |
| 20260504192307 | 20 | 227 | 11.3 | 24.1 | 0.00 | 0.00 | 0.00 | 54 | 998.7 |
| 20260504192207 | 20 | 226 | 11.3 | 24.1 | 0.00 | 0.00 | 0.00 | 54 | 998.7 |
| 20260504192128 | 20 | 224 | 11.3 | 24.1 | 0.00 | 0.00 | 0.00 | 54 | 998.7 |
| 20260504192006 | 20 | 224 | 11.3 | 24.1 | 0.00 | 0.00 | 0.00 | 53 | 998.7 |
| 20260504191906 | 20 | 227 | 11.3 | 24.1 | 0.00 | 0.00 | 0.00 | 53 | 998.7 |
| 20260504191827 | 20 | 228 | 11.3 | 24.1 | 0.00 | 0.00 | 0.00 | 53 | 998.8 |
| 20260504191706 | 20 | 225 | 11.3 | 24.1 | 0.00 | 0.00 | 0.00 | 53 | 998.8 |
| 20260504191607 | 20 | 223 | 11.3 | 24.1 | 0.00 | 0.00 | 0.00 | 53 | 998.8 |
| 20260504191527 | 20 | 221 | 11.3 | 24.1 | 0.00 | 0.00 | 0.00 | 54 | 998.8 |
| 20260504191406 | 20 | 217 | 11.3 | 24.1 | 0.00 | 0.00 | 0.00 | 53 | 998.7 |
| 20260504191327 | 19 | 217 | 11.3 | 24.1 | 0.00 | 0.00 | 0.00 | 53 | 998.7 |
| 20260504191206 | 19 | 218 | 12.9 | 24.1 | 0.00 | 0.00 | 0.00 | 53 | 998.7 |
| 20260504191127 | 19 | 218 | 12.9 | 25.7 | 0.00 | 0.00 | 0.00 | 53 | 998.7 |
| 20260504191007 | 19 | 217 | 11.3 | 25.7 | 0.00 | 0.00 | 0.00 | 53 | 998.8 |
| 20260504190906 | 19 | 214 | 11.3 | 25.7 | 0.00 | 0.00 | 0.00 | 53 | 998.8 |
| 20260504190807 | 19 | 214 | 11.3 | 25.7 | 0.00 | 0.00 | 0.00 | 53 | 998.8 |
| 20260504190707 | 19 | 213 | 11.3 | 25.7 | 0.00 | 0.00 | 0.00 | 53 | 998.8 |
| 20260504190606 | 19 | 210 | 11.3 | 25.7 | 0.00 | 0.00 | 0.00 | 53 | 998.8 |
| 20260504190506 | 19 | 210 | 11.3 | 25.7 | 0.00 | 0.00 | 0.00 | 53 | 998.8 |
| 20260504190427 | 19 | 210 | 11.3 | 25.7 | 0.00 | 0.00 | 0.00 | 52 | 998.8 |
| 20260504190307 | 19 | 205 | 11.3 | 25.7 | 0.00 | 0.00 | 0.00 | 52 | 998.8 |
| 20260504190206 | 19 | 201 | 11.3 | 29.0 | 0.00 | 0.00 | 0.00 | 52 | 998.8 |
| 20260504190127 | 19 | 201 | 11.3 | 29.0 | 0.00 | 0.00 | 0.00 | 52 | 998.8 |
| 20260504190007 | 19 | 201 | 11.3 | 29.0 | 0.00 | 0.00 | 0.00 | 52 | 998.8 |
| 20260504185906 | 19 | 201 | 11.3 | 29.0 | 0.00 | 0.00 | 0.00 | 52 | 998.8 |
| 20260504185807 | 19 | 198 | 11.3 | 29.0 | 0.00 | 0.00 | 0.00 | 52 | 999.0 |
| 20260504185706 | 19 | 201 | 11.3 | 29.0 | 0.00 | 0.00 | 0.00 | 52 | 998.9 |
| 20260504185607 | 19 | 207 | 11.3 | 29.0 | 0.00 | 0.00 | 0.00 | 52 | 998.9 |
| 20260504185506 | 18 | 208 | 11.3 | 29.0 | 0.00 | 0.00 | 0.00 | 52 | 998.9 |
| 20260504185407 | 18 | 208 | 11.3 | 29.0 | 0.00 | 0.00 | 0.00 | 52 | 998.9 |
| 20260504185306 | 18 | 212 | 9.7 | 29.0 | 0.00 | 0.00 | 0.00 | 51 | 998.9 |
| 20260504185207 | 18 | 213 | 9.7 | 27.4 | 0.00 | 0.00 | 0.00 | 51 | 999.0 |
| 20260504185107 | 18 | 216 | 9.7 | 27.4 | 0.00 | 0.00 | 0.00 | 51 | 999.0 |
| 20260504185007 | 19 | 221 | 9.7 | 24.1 | 0.00 | 0.00 | 0.00 | 51 | 998.9 |
| 20260504184906 | 19 | 222 | 11.3 | 24.1 | 0.00 | 0.00 | 0.00 | 50 | 999.0 |
| 20260504184806 | 19 | 225 | 11.3 | 24.1 | 0.00 | 0.00 | 0.00 | 50 | 999.0 |
| 20260504184728 | 19 | 225 | 11.3 | 24.1 | 0.00 | 0.00 | 0.00 | 50 | 999.0 |
| 20260504184607 | 19 | 224 | 11.3 | 24.1 | 0.00 | 0.00 | 0.00 | 51 | 999.0 |
| 20260504184506 | 18 | 224 | 11.3 | 24.1 | 0.00 | 0.00 | 0.00 | 50 | 999.0 |
| 20260504184406 | 18 | 226 | 11.3 | 22.5 | 0.00 | 0.00 | 0.00 | 51 | 999.0 |
| 20260504184306 | 18 | 222 | 11.3 | 22.5 | 0.00 | 0.00 | 0.00 | 50 | 999.0 |
| 20260504184206 | 18 | 228 | 11.3 | 27.4 | 0.00 | 0.00 | 0.00 | 50 | 999.1 |
| 20260504184107 | 18 | 227 | 11.3 | 27.4 | 0.00 | 0.00 | 0.00 | 51 | 999.1 |
| 20260504184027 | 19 | 225 | 11.3 | 27.4 | 0.00 | 0.00 | 0.00 | 50 | 999.1 |
| 20260504183928 | 19 | 223 | 9.7 | 27.4 | 0.00 | 0.00 | 0.00 | 50 | 999.1 |
| 20260504183806 | 19 | 225 | 9.7 | 32.2 | 0.00 | 0.00 | 0.00 | 52 | 999.1 |
| 20260504183706 | 18 | 225 | 9.7 | 32.2 | 0.00 | 0.00 | 0.00 | 51 | 999.1 |
| 20260504183627 | 18 | 222 | 9.7 | 32.2 | 0.00 | 0.00 | 0.00 | 52 | 999.1 |
| 20260504183506 | 18 | 223 | 9.7 | 32.2 | 0.00 | 0.00 | 0.00 | 52 | 999.2 |
| 20260504183427 | 18 | 219 | 9.7 | 32.2 | 0.00 | 0.00 | 0.00 | 51 | 999.3 |
| 20260504183306 | 18 | 223 | 9.7 | 32.2 | 0.00 | 0.00 | 0.00 | 52 | 999.3 |
| 20260504183206 | 18 | 218 | 9.7 | 32.2 | 0.00 | 0.00 | 0.00 | 53 | 999.3 |
| 20260504183106 | 18 | 216 | 9.7 | 32.2 | 0.00 | 0.00 | 0.00 | 53 | 999.2 |
| 20260504183007 | 18 | 219 | 9.7 | 32.2 | 0.00 | 0.00 | 0.00 | 52 | 999.2 |
| 20260504182906 | 18 | 219 | 11.3 | 29.0 | 0.00 | 0.00 | 0.00 | 52 | 999.3 |
| 20260504182806 | 18 | 222 | 11.3 | 29.0 | 0.00 | 0.00 | 0.00 | 53 | 999.3 |
| 20260504182706 | 18 | 219 | 11.3 | 29.0 | 0.00 | 0.00 | 0.00 | 53 | 999.2 |
| 20260504182606 | 18 | 219 | 11.3 | 29.0 | 0.00 | 0.00 | 0.00 | 52 | 999.2 |
| 20260504182507 | 18 | 220 | 11.3 | 29.0 | 0.00 | 0.00 | 0.00 | 52 | 999.2 |
| 20260504182427 | 18 | 224 | 11.3 | 29.0 | 0.00 | 0.00 | 0.00 | 51 | 999.3 |
| 20260504182306 | 18 | 224 | 11.3 | 29.0 | 0.00 | 0.00 | 0.00 | 52 | 999.1 |
| 20260504182206 | 18 | 225 | 11.3 | 29.0 | 0.00 | 0.00 | 0.00 | 52 | 999.1 |
| 20260504182107 | 18 | 227 | 11.3 | 29.0 | 0.00 | 0.00 | 0.00 | 52 | 999.3 |
| 20260504182006 | 18 | 224 | 11.3 | 29.0 | 0.00 | 0.00 | 0.00 | 51 | 999.3 |
| 20260504181906 | 18 | 220 | 9.7 | 29.0 | 0.00 | 0.00 | 0.00 | 52 | 999.3 |
| 20260504181806 | 18 | 219 | 9.7 | 20.9 | 0.00 | 0.00 | 0.00 | 52 | 999.3 |
| 20260504181706 | 18 | 221 | 9.7 | 20.9 | 0.00 | 0.00 | 0.00 | 52 | 999.3 |
| 20260504181607 | 18 | 221 | 9.7 | 19.3 | 0.00 | 0.00 | 0.00 | 52 | 999.3 |
| 20260504181507 | 18 | 222 | 9.7 | 19.3 | 0.00 | 0.00 | 0.00 | 52 | 999.3 |
| 20260504181406 | 18 | 220 | 9.7 | 19.3 | 0.00 | 0.00 | 0.00 | 53 | 999.4 |
| 20260504181327 | 18 | 220 | 9.7 | 19.3 | 0.00 | 0.00 | 0.00 | 52 | 999.4 |
| 20260504181206 | 18 | 219 | 9.7 | 19.3 | 0.00 | 0.00 | 0.00 | 53 | 999.3 |
| 20260504181106 | 18 | 220 | 9.7 | 19.3 | 0.00 | 0.00 | 0.00 | 53 | 999.3 |
| 20260504181028 | 18 | 221 | 9.7 | 20.9 | 0.00 | 0.00 | 0.00 | 53 | 999.3 |
| 20260504180906 | 18 | 218 | 11.3 | 24.1 | 0.00 | 0.00 | 0.00 | 52 | 999.4 |
| 20260504180806 | 18 | 217 | 11.3 | 24.1 | 0.00 | 0.00 | 0.00 | 52 | 999.3 |
| 20260504180727 | 18 | 217 | 11.3 | 24.1 | 0.00 | 0.00 | 0.00 | 53 | 999.3 |
| 20260504180606 | 18 | 217 | 11.3 | 24.1 | 0.00 | 0.00 | 0.00 | 53 | 999.4 |
| 20260504180507 | 18 | 213 | 9.7 | 24.1 | 0.00 | 0.00 | 0.00 | 53 | 999.5 |
| 20260504180406 | 18 | 212 | 9.7 | 24.1 | 0.00 | 0.00 | 0.00 | 53 | 999.5 |
| 20260504180306 | 18 | 211 | 9.7 | 24.1 | 0.00 | 0.00 | 0.00 | 53 | 999.4 |
| 20260504180206 | 18 | 215 | 11.3 | 24.1 | 0.00 | 0.00 | 0.00 | 52 | 999.4 |
| 20260504180106 | 18 | 217 | 9.7 | 24.1 | 0.00 | 0.00 | 0.00 | 52 | 999.5 |
| 20260504180006 | 18 | 213 | 9.7 | 24.1 | 0.00 | 0.00 | 0.00 | 51 | 999.5 |
| 20260504175906 | 18 | 219 | 9.7 | 20.9 | 0.00 | 0.00 | 0.00 | 51 | 999.5 |
| 20260504175807 | 18 | 219 | 9.7 | 20.9 | 0.00 | 0.00 | 0.00 | 51 | 999.5 |
| 20260504175706 | 18 | 218 | 9.7 | 20.9 | 0.00 | 0.00 | 0.00 | 51 | 999.5 |
| 20260504175606 | 18 | 218 | 8.0 | 20.9 | 0.00 | 0.00 | 0.00 | 51 | 999.4 |
| 20260504175527 | 18 | 219 | 8.0 | 20.9 | 0.00 | 0.00 | 0.00 | 52 | 999.4 |
| 20260504175406 | 18 | 221 | 9.7 | 20.9 | 0.00 | 0.00 | 0.00 | 52 | 999.5 |
| 20260504175306 | 18 | 221 | 9.7 | 20.9 | 0.00 | 0.00 | 0.00 | 52 | 999.4 |
| 20260504175206 | 18 | 217 | 8.0 | 20.9 | 0.00 | 0.00 | 0.00 | 52 | 999.4 |
| 20260504175127 | 18 | 213 | 8.0 | 17.7 | 0.00 | 0.00 | 0.00 | 52 | 999.4 |
| 20260504175006 | 18 | 220 | 8.0 | 17.7 | 0.00 | 0.00 | 0.00 | 50 | 999.4 |
| 20260504174906 | 18 | 219 | 8.0 | 17.7 | 0.00 | 0.00 | 0.00 | 52 | 999.4 |
| 20260504174806 | 18 | 222 | 8.0 | 17.7 | 0.00 | 0.00 | 0.00 | 52 | 999.5 |
| 20260504174706 | 18 | 220 | 8.0 | 19.3 | 0.00 | 0.00 | 0.00 | 52 | 999.4 |
| 20260504174606 | 18 | 221 | 8.0 | 19.3 | 0.00 | 0.00 | 0.00 | 52 | 999.4 |
| 20260504174506 | 18 | 219 | 8.0 | 19.3 | 0.00 | 0.00 | 0.00 | 51 | 999.4 |
| 20260504174406 | 18 | 217 | 8.0 | 19.3 | 0.00 | 0.00 | 0.00 | 51 | 999.4 |
| 20260504174306 | 18 | 216 | 8.0 | 19.3 | 0.00 | 0.00 | 0.00 | 51 | 999.5 |
| 20260504174227 | 18 | 218 | 8.0 | 19.3 | 0.00 | 0.00 | 0.00 | 52 | 999.5 |
| 20260504174106 | 18 | 223 | 8.0 | 20.9 | 0.00 | 0.00 | 0.00 | 52 | 999.4 |
| 20260504174006 | 17 | 219 | 9.7 | 24.1 | 0.00 | 0.00 | 0.00 | 51 | 999.6 |
| 20260504173906 | 17 | 214 | 8.0 | 24.1 | 0.00 | 0.00 | 0.00 | 52 | 999.6 |
| 20260504173827 | 17 | 213 | 8.0 | 24.1 | 0.00 | 0.00 | 0.00 | 51 | 999.5 |
| 20260504173706 | 17 | 216 | 8.0 | 24.1 | 0.00 | 0.00 | 0.00 | 51 | 999.5 |
| 20260504173606 | 17 | 217 | 8.0 | 24.1 | 0.00 | 0.00 | 0.00 | 51 | 999.5 |
| 20260504173506 | 17 | 217 | 8.0 | 24.1 | 0.00 | 0.00 | 0.00 | 52 | 999.5 |
| 20260504173406 | 17 | 220 | 9.7 | 24.1 | 0.00 | 0.00 | 0.00 | 52 | 999.5 |
| 20260504173327 | 17 | 220 | 9.7 | 24.1 | 0.00 | 0.00 | 0.00 | 52 | 999.6 |
| 20260504173206 | 17 | 219 | 9.7 | 24.1 | 0.00 | 0.00 | 0.00 | 50 | 999.6 |
| 20260504173106 | 17 | 214 | 9.7 | 24.1 | 0.00 | 0.00 | 0.00 | 51 | 999.6 |
| 20260504173006 | 17 | 211 | 8.0 | 20.9 | 0.00 | 0.00 | 0.00 | 51 | 999.6 |
| 20260504172906 | 17 | 206 | 9.7 | 20.9 | 0.00 | 0.00 | 0.00 | 51 | 999.6 |
| 20260504172806 | 17 | 209 | 8.0 | 20.9 | 0.00 | 0.00 | 0.00 | 51 | 999.6 |
| 20260504172706 | 17 | 208 | 8.0 | 20.9 | 0.00 | 0.00 | 0.00 | 51 | 999.6 |
| 20260504172607 | 17 | 207 | 9.7 | 20.9 | 0.00 | 0.00 | 0.00 | 53 | 999.6 |
| 20260504172506 | 17 | 207 | 9.7 | 20.9 | 0.00 | 0.00 | 0.00 | 53 | 999.7 |
| 20260504172406 | 17 | 201 | 8.0 | 19.3 | 0.00 | 0.00 | 0.00 | 53 | 999.6 |
| 20260504172306 | 17 | 202 | 9.7 | 22.5 | 0.00 | 0.00 | 0.00 | 53 | 999.6 |
| 20260504172206 | 17 | 204 | 9.7 | 22.5 | 0.00 | 0.00 | 0.00 | 53 | 999.7 |
| 20260504172106 | 17 | 205 | 9.7 | 22.5 | 0.00 | 0.00 | 0.00 | 53 | 999.7 |
| 20260504172006 | 17 | 210 | 9.7 | 22.5 | 0.00 | 0.00 | 0.00 | 53 | 999.7 |
| 20260504171907 | 17 | 216 | 9.7 | 22.5 | 0.00 | 0.00 | 0.00 | 55 | 999.8 |
| 20260504171806 | 17 | 214 | 9.7 | 22.5 | 0.00 | 0.00 | 0.00 | 54 | 999.8 |
| 20260504171706 | 17 | 217 | 9.7 | 22.5 | 0.00 | 0.00 | 0.00 | 54 | 999.8 |
| 20260504171606 | 17 | 220 | 9.7 | 22.5 | 0.00 | 0.00 | 0.00 | 55 | 999.9 |
| 20260504171507 | 16 | 223 | 11.3 | 22.5 | 0.00 | 0.00 | 0.00 | 55 | 999.9 |
| 20260504171407 | 16 | 229 | 11.3 | 29.0 | 0.00 | 0.00 | 0.00 | 54 | 1000.0 |
| 20260504171306 | 16 | 230 | 9.7 | 29.0 | 0.00 | 0.00 | 0.00 | 55 | 1000.0 |
| 20260504171227 | 16 | 228 | 9.7 | 29.0 | 0.00 | 0.00 | 0.00 | 55 | 1000.0 |
| 20260504171106 | 16 | 229 | 9.7 | 29.0 | 0.00 | 0.00 | 0.00 | 54 | 1000.0 |
| 20260504171006 | 16 | 228 | 9.7 | 29.0 | 0.00 | 0.00 | 0.00 | 54 | 1000.0 |
| 20260504170907 | 16 | 226 | 9.7 | 29.0 | 0.00 | 0.00 | 0.00 | 54 | 1000.0 |
| 20260504170806 | 16 | 226 | 9.7 | 29.0 | 0.00 | 0.00 | 0.00 | 54 | 1000.0 |
| 20260504170706 | 17 | 221 | 9.7 | 29.0 | 0.00 | 0.00 | 0.00 | 54 | 1000.0 |
| 20260504170606 | 17 | 221 | 9.7 | 29.0 | 0.00 | 0.00 | 0.00 | 55 | 1000.0 |
| 20260504170506 | 17 | 221 | 9.7 | 29.0 | 0.00 | 0.00 | 0.00 | 54 | 1000.0 |
| 20260504170427 | 17 | 217 | 9.7 | 20.9 | 0.00 | 0.00 | 0.00 | 54 | 1000.0 |
| 20260504170327 | 16 | 215 | 9.7 | 22.5 | 0.00 | 0.00 | 0.00 | 55 | 1000.0 |
| 20260504170206 | 16 | 215 | 9.7 | 22.5 | 0.00 | 0.00 | 0.00 | 55 | 1000.1 |
| 20260504170106 | 16 | 208 | 9.7 | 22.5 | 0.00 | 0.00 | 0.00 | 54 | 1000.2 |
| 20260504160406 | 16 | 228 | 9.7 | 19.3 | 0.00 | 0.00 | 0.00 | 55 | 1000.5 |
| 20260504160306 | 16 | 227 | 9.7 | 19.3 | 0.00 | 0.00 | 0.00 | 56 | 1000.5 |
| 20260504160227 | 16 | 224 | 9.7 | 19.3 | 0.00 | 0.00 | 0.00 | 55 | 1000.5 |
| 20260504160106 | 16 | 226 | 9.7 | 20.9 | 0.00 | 0.00 | 0.00 | 56 | 1000.5 |